<?xml version="1.0" encoding="utf-8"?>
<gpx xmlns:xsi="http://www.w3.org/2001/XMLSchema-instance" xmlns:xsd="http://www.w3.org/2001/XMLSchema" version="1.1" creator="Shapelink.com" xmlns="http://www.topografix.com/GPX/1/1" xmlns:gpxtpx="http://www.garmin.com/xmlschemas/TrackPointExtension/v1">
  <metadata>
    <name>Löpning 8.60 km, 2017-12-29</name>
    <desc></desc>
    <author><name>Bengt-Åke Forslund</name></author> 
    <time>2017-12-29T11:07:13Z</time>
  </metadata>
  <trk>
    <name>Löpning 8.60 km, 2017-12-29</name>
    <trkseg>
      <trkpt lat="59.8559176" lon="17.6284899">
        <ele>28.0155</ele>
        <time>2017-12-29T11:07:13Z</time>
      </trkpt>
      <trkpt lat="59.8559222" lon="17.6285085">
        <ele>27.5349</ele>
        <time>2017-12-29T11:07:14Z</time>
      </trkpt>
      <trkpt lat="59.8559723" lon="17.6287137">
        <ele>24.1703</ele>
        <time>2017-12-29T11:07:20Z</time>
      </trkpt>
      <trkpt lat="59.8559854" lon="17.6287546">
        <ele>24.1703</ele>
        <time>2017-12-29T11:07:21Z</time>
      </trkpt>
      <trkpt lat="59.8561136" lon="17.6289363">
        <ele>23.209</ele>
        <time>2017-12-29T11:07:28Z</time>
      </trkpt>
      <trkpt lat="59.8562335" lon="17.6291356">
        <ele>25.1317</ele>
        <time>2017-12-29T11:07:35Z</time>
      </trkpt>
      <trkpt lat="59.8563573" lon="17.6293524">
        <ele>22.7283</ele>
        <time>2017-12-29T11:07:43Z</time>
      </trkpt>
      <trkpt lat="59.8564671" lon="17.6295568">
        <ele>22.7283</ele>
        <time>2017-12-29T11:07:50Z</time>
      </trkpt>
      <trkpt lat="59.8565397" lon="17.6297714">
        <ele>22.7283</ele>
        <time>2017-12-29T11:07:56Z</time>
      </trkpt>
      <trkpt lat="59.8565681" lon="17.6298714">
        <ele>24.1703</ele>
        <time>2017-12-29T11:07:59Z</time>
      </trkpt>
      <trkpt lat="59.8566987" lon="17.6299934">
        <ele>28.9769</ele>
        <time>2017-12-29T11:08:05Z</time>
      </trkpt>
      <trkpt lat="59.8567946" lon="17.6301748">
        <ele>29.9381</ele>
        <time>2017-12-29T11:08:11Z</time>
      </trkpt>
      <trkpt lat="59.8568836" lon="17.6304073">
        <ele>29.4575</ele>
        <time>2017-12-29T11:08:18Z</time>
      </trkpt>
      <trkpt lat="59.8569484" lon="17.6306265">
        <ele>27.0543</ele>
        <time>2017-12-29T11:08:24Z</time>
      </trkpt>
      <trkpt lat="59.8569513" lon="17.6308878">
        <ele>24.651</ele>
        <time>2017-12-29T11:08:30Z</time>
      </trkpt>
      <trkpt lat="59.8569452" lon="17.6311311">
        <ele>23.6896</ele>
        <time>2017-12-29T11:08:36Z</time>
      </trkpt>
      <trkpt lat="59.8569467" lon="17.6313352">
        <ele>22.7283</ele>
        <time>2017-12-29T11:08:41Z</time>
      </trkpt>
      <trkpt lat="59.8569619" lon="17.6316612">
        <ele>19.8444</ele>
        <time>2017-12-29T11:08:48Z</time>
      </trkpt>
      <trkpt lat="59.8569806" lon="17.631741">
        <ele>20.325</ele>
        <time>2017-12-29T11:08:50Z</time>
      </trkpt>
      <trkpt lat="59.8570463" lon="17.6318397">
        <ele>19.8444</ele>
        <time>2017-12-29T11:08:54Z</time>
      </trkpt>
      <trkpt lat="59.8572157" lon="17.6319228">
        <ele>17.9218</ele>
        <time>2017-12-29T11:09:02Z</time>
      </trkpt>
      <trkpt lat="59.8573348" lon="17.6319413">
        <ele>17.9218</ele>
        <time>2017-12-29T11:09:07Z</time>
      </trkpt>
      <trkpt lat="59.8574829" lon="17.6319543">
        <ele>17.4412</ele>
        <time>2017-12-29T11:09:13Z</time>
      </trkpt>
      <trkpt lat="59.8575954" lon="17.6319331">
        <ele>18.8831</ele>
        <time>2017-12-29T11:09:18Z</time>
      </trkpt>
      <trkpt lat="59.8576777" lon="17.6319307">
        <ele>18.8831</ele>
        <time>2017-12-29T11:09:22Z</time>
      </trkpt>
      <trkpt lat="59.8578187" lon="17.6318993">
        <ele>17.4412</ele>
        <time>2017-12-29T11:09:29Z</time>
      </trkpt>
      <trkpt lat="59.8579522" lon="17.6318688">
        <ele>14.0764</ele>
        <time>2017-12-29T11:09:36Z</time>
      </trkpt>
      <trkpt lat="59.8580899" lon="17.6318419">
        <ele>12.1538</ele>
        <time>2017-12-29T11:09:43Z</time>
      </trkpt>
      <trkpt lat="59.8581651" lon="17.6318342">
        <ele>12.1538</ele>
        <time>2017-12-29T11:09:48Z</time>
      </trkpt>
      <trkpt lat="59.8581584" lon="17.6318899">
        <ele>13.1151</ele>
        <time>2017-12-29T11:09:52Z</time>
      </trkpt>
      <trkpt lat="59.8581393" lon="17.6320108">
        <ele>13.5958</ele>
        <time>2017-12-29T11:09:57Z</time>
      </trkpt>
      <trkpt lat="59.8581392" lon="17.6320527">
        <ele>14.557</ele>
        <time>2017-12-29T11:09:59Z</time>
      </trkpt>
      <trkpt lat="59.8581439" lon="17.6322863">
        <ele>15.999</ele>
        <time>2017-12-29T11:10:06Z</time>
      </trkpt>
      <trkpt lat="59.8581448" lon="17.6323126">
        <ele>15.999</ele>
        <time>2017-12-29T11:10:07Z</time>
      </trkpt>
      <trkpt lat="59.8581403" lon="17.6324242">
        <ele>24.651</ele>
        <time>2017-12-29T11:10:14Z</time>
      </trkpt>
      <trkpt lat="59.8581454" lon="17.6324335">
        <ele>29.9381</ele>
        <time>2017-12-29T11:10:17Z</time>
      </trkpt>
      <trkpt lat="59.8581702" lon="17.6325273">
        <ele>39.0707</ele>
        <time>2017-12-29T11:10:30Z</time>
      </trkpt>
      <trkpt lat="59.8581675" lon="17.632594">
        <ele>39.5513</ele>
        <time>2017-12-29T11:10:31Z</time>
      </trkpt>
      <trkpt lat="59.8582162" lon="17.632648">
        <ele>42.916</ele>
        <time>2017-12-29T11:10:35Z</time>
      </trkpt>
      <trkpt lat="59.8582018" lon="17.6325718">
        <ele>34.2642</ele>
        <time>2017-12-29T11:11:27Z</time>
      </trkpt>
      <trkpt lat="59.8581988" lon="17.6324467">
        <ele>34.2642</ele>
        <time>2017-12-29T11:11:29Z</time>
      </trkpt>
      <trkpt lat="59.8582351" lon="17.6322417">
        <ele>40.5128</ele>
        <time>2017-12-29T11:11:33Z</time>
      </trkpt>
      <trkpt lat="59.8582442" lon="17.6320584">
        <ele>45.7999</ele>
        <time>2017-12-29T11:11:35Z</time>
      </trkpt>
      <trkpt lat="59.8583484" lon="17.6320811">
        <ele>42.916</ele>
        <time>2017-12-29T11:11:41Z</time>
      </trkpt>
      <trkpt lat="59.8583976" lon="17.6321664">
        <ele>37.1481</ele>
        <time>2017-12-29T11:11:47Z</time>
      </trkpt>
      <trkpt lat="59.8583847" lon="17.6322205">
        <ele>32.8223</ele>
        <time>2017-12-29T11:11:53Z</time>
      </trkpt>
      <trkpt lat="59.8583874" lon="17.632234">
        <ele>33.3029</ele>
        <time>2017-12-29T11:11:57Z</time>
      </trkpt>
      <trkpt lat="59.8584024" lon="17.6322429">
        <ele>33.3029</ele>
        <time>2017-12-29T11:12:00Z</time>
      </trkpt>
      <trkpt lat="59.8584211" lon="17.6322423">
        <ele>35.2255</ele>
        <time>2017-12-29T11:12:02Z</time>
      </trkpt>
      <trkpt lat="59.8584304" lon="17.6323268">
        <ele>40.0321</ele>
        <time>2017-12-29T11:12:07Z</time>
      </trkpt>
      <trkpt lat="59.858504" lon="17.6322313">
        <ele>35.7061</ele>
        <time>2017-12-29T11:12:11Z</time>
      </trkpt>
      <trkpt lat="59.8585027" lon="17.6319523">
        <ele>21.2864</ele>
        <time>2017-12-29T11:12:21Z</time>
      </trkpt>
      <trkpt lat="59.8585013" lon="17.6318802">
        <ele>19.8444</ele>
        <time>2017-12-29T11:12:26Z</time>
      </trkpt>
      <trkpt lat="59.8585308" lon="17.6318777">
        <ele>22.2476</ele>
        <time>2017-12-29T11:12:29Z</time>
      </trkpt>
      <trkpt lat="59.8585878" lon="17.6318548">
        <ele>23.209</ele>
        <time>2017-12-29T11:12:36Z</time>
      </trkpt>
      <trkpt lat="59.8586503" lon="17.6318187">
        <ele>21.767</ele>
        <time>2017-12-29T11:12:41Z</time>
      </trkpt>
      <trkpt lat="59.8585084" lon="17.6318413">
        <ele>18.4023</ele>
        <time>2017-12-29T11:12:56Z</time>
      </trkpt>
      <trkpt lat="59.8584832" lon="17.6318598">
        <ele>20.325</ele>
        <time>2017-12-29T11:13:00Z</time>
      </trkpt>
      <trkpt lat="59.8584692" lon="17.6318667">
        <ele>20.325</ele>
        <time>2017-12-29T11:13:03Z</time>
      </trkpt>
      <trkpt lat="59.8584709" lon="17.631888">
        <ele>25.1317</ele>
        <time>2017-12-29T11:13:18Z</time>
      </trkpt>
      <trkpt lat="59.8585178" lon="17.6319936">
        <ele>25.6123</ele>
        <time>2017-12-29T11:13:22Z</time>
      </trkpt>
      <trkpt lat="59.8584965" lon="17.6319481">
        <ele>22.7283</ele>
        <time>2017-12-29T11:13:24Z</time>
      </trkpt>
      <trkpt lat="59.8584208" lon="17.6319615">
        <ele>23.6896</ele>
        <time>2017-12-29T11:13:28Z</time>
      </trkpt>
      <trkpt lat="59.8583483" lon="17.632064">
        <ele>21.767</ele>
        <time>2017-12-29T11:13:29Z</time>
      </trkpt>
      <trkpt lat="59.8582268" lon="17.6322348">
        <ele>26.5736</ele>
        <time>2017-12-29T11:13:34Z</time>
      </trkpt>
      <trkpt lat="59.8581828" lon="17.6322165">
        <ele>28.4962</ele>
        <time>2017-12-29T11:13:38Z</time>
      </trkpt>
      <trkpt lat="59.8581828" lon="17.6320499">
        <ele>30.4188</ele>
        <time>2017-12-29T11:13:43Z</time>
      </trkpt>
      <trkpt lat="59.8582019" lon="17.6319857">
        <ele>31.8607</ele>
        <time>2017-12-29T11:13:45Z</time>
      </trkpt>
      <trkpt lat="59.8582175" lon="17.6319304">
        <ele>30.8995</ele>
        <time>2017-12-29T11:13:48Z</time>
      </trkpt>
      <trkpt lat="59.8582258" lon="17.6319139">
        <ele>29.4575</ele>
        <time>2017-12-29T11:13:49Z</time>
      </trkpt>
      <trkpt lat="59.8582682" lon="17.6318941">
        <ele>28.9769</ele>
        <time>2017-12-29T11:13:53Z</time>
      </trkpt>
      <trkpt lat="59.8583922" lon="17.6319465">
        <ele>23.6896</ele>
        <time>2017-12-29T11:13:58Z</time>
      </trkpt>
      <trkpt lat="59.8584806" lon="17.6320408">
        <ele>19.3638</ele>
        <time>2017-12-29T11:14:02Z</time>
      </trkpt>
      <trkpt lat="59.8586032" lon="17.6321615">
        <ele>14.0764</ele>
        <time>2017-12-29T11:14:08Z</time>
      </trkpt>
      <trkpt lat="59.8587249" lon="17.6322579">
        <ele>11.6732</ele>
        <time>2017-12-29T11:14:13Z</time>
      </trkpt>
      <trkpt lat="59.8588539" lon="17.6324457">
        <ele>9.75061</ele>
        <time>2017-12-29T11:14:20Z</time>
      </trkpt>
      <trkpt lat="59.8589417" lon="17.6325618">
        <ele>7.82788</ele>
        <time>2017-12-29T11:14:25Z</time>
      </trkpt>
      <trkpt lat="59.8590535" lon="17.6327048">
        <ele>9.75061</ele>
        <time>2017-12-29T11:14:31Z</time>
      </trkpt>
      <trkpt lat="59.8591285" lon="17.6325882">
        <ele>13.1151</ele>
        <time>2017-12-29T11:14:37Z</time>
      </trkpt>
      <trkpt lat="59.859193" lon="17.6323983">
        <ele>12.1538</ele>
        <time>2017-12-29T11:14:43Z</time>
      </trkpt>
      <trkpt lat="59.8592758" lon="17.6322452">
        <ele>12.6344</ele>
        <time>2017-12-29T11:14:49Z</time>
      </trkpt>
      <trkpt lat="59.8592954" lon="17.632179">
        <ele>12.6344</ele>
        <time>2017-12-29T11:14:51Z</time>
      </trkpt>
      <trkpt lat="59.8593227" lon="17.6321525">
        <ele>15.5184</ele>
        <time>2017-12-29T11:14:55Z</time>
      </trkpt>
      <trkpt lat="59.8593648" lon="17.6321528">
        <ele>15.5184</ele>
        <time>2017-12-29T11:15:26Z</time>
      </trkpt>
      <trkpt lat="59.8594284" lon="17.632223">
        <ele>16.4797</ele>
        <time>2017-12-29T11:15:28Z</time>
      </trkpt>
      <trkpt lat="59.8595442" lon="17.6324158">
        <ele>11.6732</ele>
        <time>2017-12-29T11:15:35Z</time>
      </trkpt>
      <trkpt lat="59.8596161" lon="17.6325666">
        <ele>9.2699</ele>
        <time>2017-12-29T11:15:40Z</time>
      </trkpt>
      <trkpt lat="59.8596902" lon="17.632725">
        <ele>7.82788</ele>
        <time>2017-12-29T11:15:45Z</time>
      </trkpt>
      <trkpt lat="59.8597674" lon="17.6328541">
        <ele>6.86646</ele>
        <time>2017-12-29T11:15:50Z</time>
      </trkpt>
      <trkpt lat="59.8598884" lon="17.6328176">
        <ele>7.82788</ele>
        <time>2017-12-29T11:15:55Z</time>
      </trkpt>
      <trkpt lat="59.8599134" lon="17.6328157">
        <ele>8.30859</ele>
        <time>2017-12-29T11:15:56Z</time>
      </trkpt>
      <trkpt lat="59.859974" lon="17.6329088">
        <ele>7.82788</ele>
        <time>2017-12-29T11:16:00Z</time>
      </trkpt>
      <trkpt lat="59.8600813" lon="17.6331608">
        <ele>8.30859</ele>
        <time>2017-12-29T11:16:08Z</time>
      </trkpt>
      <trkpt lat="59.8601534" lon="17.6333208">
        <ele>9.2699</ele>
        <time>2017-12-29T11:16:13Z</time>
      </trkpt>
      <trkpt lat="59.8601994" lon="17.6335057">
        <ele>9.75061</ele>
        <time>2017-12-29T11:16:18Z</time>
      </trkpt>
      <trkpt lat="59.8602946" lon="17.6337104">
        <ele>10.7118</ele>
        <time>2017-12-29T11:16:24Z</time>
      </trkpt>
      <trkpt lat="59.8603088" lon="17.633743">
        <ele>11.6732</ele>
        <time>2017-12-29T11:16:25Z</time>
      </trkpt>
      <trkpt lat="59.8604442" lon="17.633708">
        <ele>13.1151</ele>
        <time>2017-12-29T11:16:31Z</time>
      </trkpt>
      <trkpt lat="59.8605712" lon="17.6336145">
        <ele>14.0764</ele>
        <time>2017-12-29T11:16:36Z</time>
      </trkpt>
      <trkpt lat="59.8606654" lon="17.6335627">
        <ele>14.0764</ele>
        <time>2017-12-29T11:16:41Z</time>
      </trkpt>
      <trkpt lat="59.8607949" lon="17.6334975">
        <ele>17.4412</ele>
        <time>2017-12-29T11:16:46Z</time>
      </trkpt>
      <trkpt lat="59.860918" lon="17.6334026">
        <ele>15.999</ele>
        <time>2017-12-29T11:16:51Z</time>
      </trkpt>
      <trkpt lat="59.8610436" lon="17.6333218">
        <ele>16.9604</ele>
        <time>2017-12-29T11:16:56Z</time>
      </trkpt>
      <trkpt lat="59.8611541" lon="17.6331954">
        <ele>14.0764</ele>
        <time>2017-12-29T11:17:02Z</time>
      </trkpt>
      <trkpt lat="59.861239" lon="17.6331145">
        <ele>13.1151</ele>
        <time>2017-12-29T11:17:06Z</time>
      </trkpt>
      <trkpt lat="59.8613028" lon="17.6331531">
        <ele>13.5958</ele>
        <time>2017-12-29T11:17:09Z</time>
      </trkpt>
      <trkpt lat="59.8613249" lon="17.6332292">
        <ele>15.0377</ele>
        <time>2017-12-29T11:17:11Z</time>
      </trkpt>
      <trkpt lat="59.861398" lon="17.6333928">
        <ele>15.999</ele>
        <time>2017-12-29T11:17:17Z</time>
      </trkpt>
      <trkpt lat="59.8614271" lon="17.6334426">
        <ele>15.999</ele>
        <time>2017-12-29T11:17:19Z</time>
      </trkpt>
      <trkpt lat="59.8614566" lon="17.6335139">
        <ele>16.4797</ele>
        <time>2017-12-29T11:17:22Z</time>
      </trkpt>
      <trkpt lat="59.8615229" lon="17.6334649">
        <ele>14.557</ele>
        <time>2017-12-29T11:17:26Z</time>
      </trkpt>
      <trkpt lat="59.8616996" lon="17.6331877">
        <ele>13.5958</ele>
        <time>2017-12-29T11:17:35Z</time>
      </trkpt>
      <trkpt lat="59.8617993" lon="17.6330094">
        <ele>12.1538</ele>
        <time>2017-12-29T11:17:41Z</time>
      </trkpt>
      <trkpt lat="59.8619119" lon="17.6327829">
        <ele>10.7118</ele>
        <time>2017-12-29T11:17:48Z</time>
      </trkpt>
      <trkpt lat="59.8620004" lon="17.63259">
        <ele>8.78918</ele>
        <time>2017-12-29T11:17:54Z</time>
      </trkpt>
      <trkpt lat="59.8621289" lon="17.6324806">
        <ele>9.75061</ele>
        <time>2017-12-29T11:18:00Z</time>
      </trkpt>
      <trkpt lat="59.8622357" lon="17.6323754">
        <ele>11.1925</ele>
        <time>2017-12-29T11:18:05Z</time>
      </trkpt>
      <trkpt lat="59.8622526" lon="17.6321361">
        <ele>7.82788</ele>
        <time>2017-12-29T11:18:10Z</time>
      </trkpt>
      <trkpt lat="59.8622968" lon="17.6320689">
        <ele>7.82788</ele>
        <time>2017-12-29T11:18:12Z</time>
      </trkpt>
      <trkpt lat="59.8624223" lon="17.631965">
        <ele>8.30859</ele>
        <time>2017-12-29T11:18:18Z</time>
      </trkpt>
      <trkpt lat="59.862563" lon="17.6318434">
        <ele>7.82788</ele>
        <time>2017-12-29T11:18:24Z</time>
      </trkpt>
      <trkpt lat="59.86272" lon="17.631743">
        <ele>8.30859</ele>
        <time>2017-12-29T11:18:31Z</time>
      </trkpt>
      <trkpt lat="59.862825" lon="17.6316704">
        <ele>8.78918</ele>
        <time>2017-12-29T11:18:36Z</time>
      </trkpt>
      <trkpt lat="59.8629344" lon="17.6315337">
        <ele>9.75061</ele>
        <time>2017-12-29T11:18:42Z</time>
      </trkpt>
      <trkpt lat="59.8630552" lon="17.6314576">
        <ele>10.7118</ele>
        <time>2017-12-29T11:18:47Z</time>
      </trkpt>
      <trkpt lat="59.8632016" lon="17.6313884">
        <ele>14.0764</ele>
        <time>2017-12-29T11:18:53Z</time>
      </trkpt>
      <trkpt lat="59.8633616" lon="17.6312709">
        <ele>15.999</ele>
        <time>2017-12-29T11:19:00Z</time>
      </trkpt>
      <trkpt lat="59.8634893" lon="17.6311933">
        <ele>15.0377</ele>
        <time>2017-12-29T11:19:06Z</time>
      </trkpt>
      <trkpt lat="59.8636021" lon="17.6311191">
        <ele>16.4797</ele>
        <time>2017-12-29T11:19:11Z</time>
      </trkpt>
      <trkpt lat="59.8637333" lon="17.6310156">
        <ele>16.9604</ele>
        <time>2017-12-29T11:19:17Z</time>
      </trkpt>
      <trkpt lat="59.863884" lon="17.6309139">
        <ele>17.9218</ele>
        <time>2017-12-29T11:19:24Z</time>
      </trkpt>
      <trkpt lat="59.8640057" lon="17.6308363">
        <ele>17.4412</ele>
        <time>2017-12-29T11:19:30Z</time>
      </trkpt>
      <trkpt lat="59.8640188" lon="17.6308193">
        <ele>17.4412</ele>
        <time>2017-12-29T11:19:31Z</time>
      </trkpt>
      <trkpt lat="59.8639941" lon="17.6307143">
        <ele>15.999</ele>
        <time>2017-12-29T11:19:35Z</time>
      </trkpt>
      <trkpt lat="59.8638699" lon="17.6305174">
        <ele>14.557</ele>
        <time>2017-12-29T11:19:42Z</time>
      </trkpt>
      <trkpt lat="59.86381" lon="17.6304054">
        <ele>13.5958</ele>
        <time>2017-12-29T11:19:46Z</time>
      </trkpt>
      <trkpt lat="59.8637857" lon="17.6302915">
        <ele>14.0764</ele>
        <time>2017-12-29T11:19:49Z</time>
      </trkpt>
      <trkpt lat="59.8638432" lon="17.6301257">
        <ele>12.1538</ele>
        <time>2017-12-29T11:19:54Z</time>
      </trkpt>
      <trkpt lat="59.8639177" lon="17.6300105">
        <ele>12.1538</ele>
        <time>2017-12-29T11:19:58Z</time>
      </trkpt>
      <trkpt lat="59.8640506" lon="17.6298163">
        <ele>12.6344</ele>
        <time>2017-12-29T11:20:05Z</time>
      </trkpt>
      <trkpt lat="59.8641413" lon="17.6296347">
        <ele>13.1151</ele>
        <time>2017-12-29T11:20:11Z</time>
      </trkpt>
      <trkpt lat="59.8642308" lon="17.6294816">
        <ele>14.0764</ele>
        <time>2017-12-29T11:20:16Z</time>
      </trkpt>
      <trkpt lat="59.8643054" lon="17.6292946">
        <ele>15.999</ele>
        <time>2017-12-29T11:20:21Z</time>
      </trkpt>
      <trkpt lat="59.8643616" lon="17.6291126">
        <ele>14.557</ele>
        <time>2017-12-29T11:20:26Z</time>
      </trkpt>
      <trkpt lat="59.8644407" lon="17.6289608">
        <ele>12.6344</ele>
        <time>2017-12-29T11:20:31Z</time>
      </trkpt>
      <trkpt lat="59.864576" lon="17.628736">
        <ele>14.0764</ele>
        <time>2017-12-29T11:20:38Z</time>
      </trkpt>
      <trkpt lat="59.8646782" lon="17.6286429">
        <ele>13.1151</ele>
        <time>2017-12-29T11:20:43Z</time>
      </trkpt>
      <trkpt lat="59.8647794" lon="17.6287156">
        <ele>11.6732</ele>
        <time>2017-12-29T11:20:49Z</time>
      </trkpt>
      <trkpt lat="59.8648553" lon="17.6287374">
        <ele>11.6732</ele>
        <time>2017-12-29T11:20:53Z</time>
      </trkpt>
      <trkpt lat="59.8649714" lon="17.6286341">
        <ele>6.86646</ele>
        <time>2017-12-29T11:20:57Z</time>
      </trkpt>
      <trkpt lat="59.8651377" lon="17.6284225">
        <ele>6.38586</ele>
        <time>2017-12-29T11:21:05Z</time>
      </trkpt>
      <trkpt lat="59.8652711" lon="17.6282555">
        <ele>7.34717</ele>
        <time>2017-12-29T11:21:12Z</time>
      </trkpt>
      <trkpt lat="59.8653795" lon="17.6280964">
        <ele>7.82788</ele>
        <time>2017-12-29T11:21:18Z</time>
      </trkpt>
      <trkpt lat="59.8654982" lon="17.6278988">
        <ele>8.78918</ele>
        <time>2017-12-29T11:21:25Z</time>
      </trkpt>
      <trkpt lat="59.8655972" lon="17.6277292">
        <ele>8.78918</ele>
        <time>2017-12-29T11:21:31Z</time>
      </trkpt>
      <trkpt lat="59.8656974" lon="17.6275497">
        <ele>8.30859</ele>
        <time>2017-12-29T11:21:37Z</time>
      </trkpt>
      <trkpt lat="59.865836" lon="17.6273078">
        <ele>7.82788</ele>
        <time>2017-12-29T11:21:45Z</time>
      </trkpt>
      <trkpt lat="59.8659589" lon="17.6270959">
        <ele>7.82788</ele>
        <time>2017-12-29T11:21:52Z</time>
      </trkpt>
      <trkpt lat="59.8660991" lon="17.62686">
        <ele>7.82788</ele>
        <time>2017-12-29T11:22:00Z</time>
      </trkpt>
      <trkpt lat="59.8662372" lon="17.6266214">
        <ele>9.2699</ele>
        <time>2017-12-29T11:22:08Z</time>
      </trkpt>
      <trkpt lat="59.8663316" lon="17.6263567">
        <ele>9.75061</ele>
        <time>2017-12-29T11:22:15Z</time>
      </trkpt>
      <trkpt lat="59.8663652" lon="17.6261266">
        <ele>9.75061</ele>
        <time>2017-12-29T11:22:20Z</time>
      </trkpt>
      <trkpt lat="59.8663865" lon="17.6258998">
        <ele>9.75061</ele>
        <time>2017-12-29T11:22:25Z</time>
      </trkpt>
      <trkpt lat="59.8664119" lon="17.6255821">
        <ele>9.2699</ele>
        <time>2017-12-29T11:22:32Z</time>
      </trkpt>
      <trkpt lat="59.8664335" lon="17.6253577">
        <ele>8.78918</ele>
        <time>2017-12-29T11:22:37Z</time>
      </trkpt>
      <trkpt lat="59.8664389" lon="17.6250776">
        <ele>9.2699</ele>
        <time>2017-12-29T11:22:43Z</time>
      </trkpt>
      <trkpt lat="59.8664472" lon="17.6247494">
        <ele>9.2699</ele>
        <time>2017-12-29T11:22:50Z</time>
      </trkpt>
      <trkpt lat="59.866456" lon="17.6245636">
        <ele>8.78918</ele>
        <time>2017-12-29T11:22:54Z</time>
      </trkpt>
      <trkpt lat="59.8664809" lon="17.6242611">
        <ele>8.78918</ele>
        <time>2017-12-29T11:23:01Z</time>
      </trkpt>
      <trkpt lat="59.8665013" lon="17.6240235">
        <ele>9.75061</ele>
        <time>2017-12-29T11:23:06Z</time>
      </trkpt>
      <trkpt lat="59.8665256" lon="17.6237826">
        <ele>9.2699</ele>
        <time>2017-12-29T11:23:11Z</time>
      </trkpt>
      <trkpt lat="59.8665213" lon="17.623544">
        <ele>9.75061</ele>
        <time>2017-12-29T11:23:16Z</time>
      </trkpt>
      <trkpt lat="59.8665216" lon="17.6233122">
        <ele>9.75061</ele>
        <time>2017-12-29T11:23:21Z</time>
      </trkpt>
      <trkpt lat="59.8665392" lon="17.6231859">
        <ele>9.75061</ele>
        <time>2017-12-29T11:23:24Z</time>
      </trkpt>
      <trkpt lat="59.8665234" lon="17.6229734">
        <ele>9.75061</ele>
        <time>2017-12-29T11:23:29Z</time>
      </trkpt>
      <trkpt lat="59.8665293" lon="17.6228015">
        <ele>9.75061</ele>
        <time>2017-12-29T11:23:33Z</time>
      </trkpt>
      <trkpt lat="59.8665413" lon="17.6226285">
        <ele>11.1925</ele>
        <time>2017-12-29T11:23:37Z</time>
      </trkpt>
      <trkpt lat="59.8665498" lon="17.6224748">
        <ele>11.6732</ele>
        <time>2017-12-29T11:23:41Z</time>
      </trkpt>
      <trkpt lat="59.866473" lon="17.6223554">
        <ele>11.1925</ele>
        <time>2017-12-29T11:23:46Z</time>
      </trkpt>
      <trkpt lat="59.8664616" lon="17.6221136">
        <ele>10.2312</ele>
        <time>2017-12-29T11:23:51Z</time>
      </trkpt>
      <trkpt lat="59.8664518" lon="17.6220248">
        <ele>10.2312</ele>
        <time>2017-12-29T11:23:53Z</time>
      </trkpt>
      <trkpt lat="59.8664034" lon="17.6218187">
        <ele>11.1925</ele>
        <time>2017-12-29T11:23:58Z</time>
      </trkpt>
      <trkpt lat="59.8664029" lon="17.6217375">
        <ele>11.1925</ele>
        <time>2017-12-29T11:24:00Z</time>
      </trkpt>
      <trkpt lat="59.8663974" lon="17.6215048">
        <ele>13.1151</ele>
        <time>2017-12-29T11:24:05Z</time>
      </trkpt>
      <trkpt lat="59.8663834" lon="17.6212589">
        <ele>13.1151</ele>
        <time>2017-12-29T11:24:10Z</time>
      </trkpt>
      <trkpt lat="59.86643" lon="17.621">
        <ele>11.6732</ele>
        <time>2017-12-29T11:24:16Z</time>
      </trkpt>
      <trkpt lat="59.8664923" lon="17.6208678">
        <ele>11.6732</ele>
        <time>2017-12-29T11:24:20Z</time>
      </trkpt>
      <trkpt lat="59.8665264" lon="17.6208025">
        <ele>11.1925</ele>
        <time>2017-12-29T11:24:22Z</time>
      </trkpt>
      <trkpt lat="59.8665959" lon="17.6206527">
        <ele>11.1925</ele>
        <time>2017-12-29T11:24:27Z</time>
      </trkpt>
      <trkpt lat="59.8666714" lon="17.6205026">
        <ele>9.75061</ele>
        <time>2017-12-29T11:24:32Z</time>
      </trkpt>
      <trkpt lat="59.8667071" lon="17.6202549">
        <ele>9.2699</ele>
        <time>2017-12-29T11:24:38Z</time>
      </trkpt>
      <trkpt lat="59.866709" lon="17.6202121">
        <ele>9.2699</ele>
        <time>2017-12-29T11:24:39Z</time>
      </trkpt>
      <trkpt lat="59.866752" lon="17.6199726">
        <ele>9.2699</ele>
        <time>2017-12-29T11:24:45Z</time>
      </trkpt>
      <trkpt lat="59.8667594" lon="17.6197514">
        <ele>9.75061</ele>
        <time>2017-12-29T11:24:50Z</time>
      </trkpt>
      <trkpt lat="59.8667728" lon="17.61959">
        <ele>10.2312</ele>
        <time>2017-12-29T11:24:54Z</time>
      </trkpt>
      <trkpt lat="59.8667683" lon="17.619391">
        <ele>10.2312</ele>
        <time>2017-12-29T11:24:59Z</time>
      </trkpt>
      <trkpt lat="59.866796" lon="17.6190852">
        <ele>10.2312</ele>
        <time>2017-12-29T11:25:06Z</time>
      </trkpt>
      <trkpt lat="59.8668004" lon="17.6187647">
        <ele>10.7118</ele>
        <time>2017-12-29T11:25:13Z</time>
      </trkpt>
      <trkpt lat="59.8667558" lon="17.6186376">
        <ele>11.6732</ele>
        <time>2017-12-29T11:25:17Z</time>
      </trkpt>
      <trkpt lat="59.8666175" lon="17.6184165">
        <ele>12.6344</ele>
        <time>2017-12-29T11:25:24Z</time>
      </trkpt>
      <trkpt lat="59.8664886" lon="17.6181867">
        <ele>12.6344</ele>
        <time>2017-12-29T11:25:31Z</time>
      </trkpt>
      <trkpt lat="59.8664208" lon="17.6179416">
        <ele>12.1538</ele>
        <time>2017-12-29T11:25:37Z</time>
      </trkpt>
      <trkpt lat="59.8664198" lon="17.6178539">
        <ele>12.6344</ele>
        <time>2017-12-29T11:25:39Z</time>
      </trkpt>
      <trkpt lat="59.8664434" lon="17.6175226">
        <ele>13.1151</ele>
        <time>2017-12-29T11:25:46Z</time>
      </trkpt>
      <trkpt lat="59.866449" lon="17.6174003">
        <ele>14.0764</ele>
        <time>2017-12-29T11:25:49Z</time>
      </trkpt>
      <trkpt lat="59.8664481" lon="17.6171462">
        <ele>13.5958</ele>
        <time>2017-12-29T11:25:55Z</time>
      </trkpt>
      <trkpt lat="59.8664723" lon="17.6168164">
        <ele>15.0377</ele>
        <time>2017-12-29T11:26:02Z</time>
      </trkpt>
      <trkpt lat="59.866456" lon="17.6164658">
        <ele>16.4797</ele>
        <time>2017-12-29T11:26:09Z</time>
      </trkpt>
      <trkpt lat="59.8664366" lon="17.6161389">
        <ele>18.4023</ele>
        <time>2017-12-29T11:26:16Z</time>
      </trkpt>
      <trkpt lat="59.8664049" lon="17.6158788">
        <ele>18.4023</ele>
        <time>2017-12-29T11:26:22Z</time>
      </trkpt>
      <trkpt lat="59.8663642" lon="17.6156699">
        <ele>17.9218</ele>
        <time>2017-12-29T11:26:27Z</time>
      </trkpt>
      <trkpt lat="59.8663591" lon="17.6154396">
        <ele>18.8831</ele>
        <time>2017-12-29T11:26:32Z</time>
      </trkpt>
      <trkpt lat="59.8663865" lon="17.615278">
        <ele>18.4023</ele>
        <time>2017-12-29T11:26:36Z</time>
      </trkpt>
      <trkpt lat="59.866419" lon="17.6150123">
        <ele>17.9218</ele>
        <time>2017-12-29T11:26:42Z</time>
      </trkpt>
      <trkpt lat="59.8664288" lon="17.6147828">
        <ele>16.9604</ele>
        <time>2017-12-29T11:26:47Z</time>
      </trkpt>
      <trkpt lat="59.8664438" lon="17.6145503">
        <ele>15.999</ele>
        <time>2017-12-29T11:26:52Z</time>
      </trkpt>
      <trkpt lat="59.8664707" lon="17.61427">
        <ele>14.557</ele>
        <time>2017-12-29T11:26:58Z</time>
      </trkpt>
      <trkpt lat="59.8664827" lon="17.6140356">
        <ele>15.0377</ele>
        <time>2017-12-29T11:27:03Z</time>
      </trkpt>
      <trkpt lat="59.8664997" lon="17.613707">
        <ele>14.557</ele>
        <time>2017-12-29T11:27:10Z</time>
      </trkpt>
      <trkpt lat="59.8665098" lon="17.6134862">
        <ele>14.557</ele>
        <time>2017-12-29T11:27:15Z</time>
      </trkpt>
      <trkpt lat="59.8665091" lon="17.6133989">
        <ele>14.0764</ele>
        <time>2017-12-29T11:27:17Z</time>
      </trkpt>
      <trkpt lat="59.8665321" lon="17.6130977">
        <ele>13.5958</ele>
        <time>2017-12-29T11:27:24Z</time>
      </trkpt>
      <trkpt lat="59.8665652" lon="17.6128807">
        <ele>11.1925</ele>
        <time>2017-12-29T11:27:29Z</time>
      </trkpt>
      <trkpt lat="59.866595" lon="17.6126205">
        <ele>11.6732</ele>
        <time>2017-12-29T11:27:35Z</time>
      </trkpt>
      <trkpt lat="59.8666118" lon="17.6123429">
        <ele>11.6732</ele>
        <time>2017-12-29T11:27:41Z</time>
      </trkpt>
      <trkpt lat="59.8666244" lon="17.6121163">
        <ele>12.1538</ele>
        <time>2017-12-29T11:27:46Z</time>
      </trkpt>
      <trkpt lat="59.866621" lon="17.611839">
        <ele>12.6344</ele>
        <time>2017-12-29T11:27:52Z</time>
      </trkpt>
      <trkpt lat="59.8665937" lon="17.6115685">
        <ele>11.1925</ele>
        <time>2017-12-29T11:27:58Z</time>
      </trkpt>
      <trkpt lat="59.8665683" lon="17.6113566">
        <ele>10.7118</ele>
        <time>2017-12-29T11:28:03Z</time>
      </trkpt>
      <trkpt lat="59.8665396" lon="17.6112681">
        <ele>11.1925</ele>
        <time>2017-12-29T11:28:05Z</time>
      </trkpt>
      <trkpt lat="59.8664904" lon="17.6110624">
        <ele>11.1925</ele>
        <time>2017-12-29T11:28:10Z</time>
      </trkpt>
      <trkpt lat="59.8664253" lon="17.6108091">
        <ele>11.6732</ele>
        <time>2017-12-29T11:28:16Z</time>
      </trkpt>
      <trkpt lat="59.8663647" lon="17.6105686">
        <ele>11.1925</ele>
        <time>2017-12-29T11:28:22Z</time>
      </trkpt>
      <trkpt lat="59.866272" lon="17.6103091">
        <ele>10.7118</ele>
        <time>2017-12-29T11:28:29Z</time>
      </trkpt>
      <trkpt lat="59.8662185" lon="17.6100341">
        <ele>10.7118</ele>
        <time>2017-12-29T11:28:36Z</time>
      </trkpt>
      <trkpt lat="59.8661706" lon="17.6098819">
        <ele>10.7118</ele>
        <time>2017-12-29T11:28:40Z</time>
      </trkpt>
      <trkpt lat="59.8661783" lon="17.6095831">
        <ele>12.1538</ele>
        <time>2017-12-29T11:28:47Z</time>
      </trkpt>
      <trkpt lat="59.8661843" lon="17.6095424">
        <ele>12.1538</ele>
        <time>2017-12-29T11:28:48Z</time>
      </trkpt>
      <trkpt lat="59.8662958" lon="17.6093255">
        <ele>13.1151</ele>
        <time>2017-12-29T11:28:55Z</time>
      </trkpt>
      <trkpt lat="59.8664088" lon="17.6091587">
        <ele>14.557</ele>
        <time>2017-12-29T11:29:01Z</time>
      </trkpt>
      <trkpt lat="59.8664221" lon="17.6091214">
        <ele>14.557</ele>
        <time>2017-12-29T11:29:02Z</time>
      </trkpt>
      <trkpt lat="59.8665634" lon="17.6089791">
        <ele>18.4023</ele>
        <time>2017-12-29T11:29:09Z</time>
      </trkpt>
      <trkpt lat="59.8667209" lon="17.6087578">
        <ele>24.651</ele>
        <time>2017-12-29T11:29:17Z</time>
      </trkpt>
      <trkpt lat="59.8668102" lon="17.6085361">
        <ele>23.6896</ele>
        <time>2017-12-29T11:29:24Z</time>
      </trkpt>
      <trkpt lat="59.8668947" lon="17.6084105">
        <ele>23.209</ele>
        <time>2017-12-29T11:29:29Z</time>
      </trkpt>
      <trkpt lat="59.8670188" lon="17.6082399">
        <ele>26.5736</ele>
        <time>2017-12-29T11:29:35Z</time>
      </trkpt>
      <trkpt lat="59.8671283" lon="17.6081189">
        <ele>28.9769</ele>
        <time>2017-12-29T11:29:40Z</time>
      </trkpt>
      <trkpt lat="59.8672261" lon="17.6079998">
        <ele>30.8995</ele>
        <time>2017-12-29T11:29:45Z</time>
      </trkpt>
      <trkpt lat="59.8673405" lon="17.6078573">
        <ele>30.8995</ele>
        <time>2017-12-29T11:29:51Z</time>
      </trkpt>
      <trkpt lat="59.8673798" lon="17.6078246">
        <ele>30.4188</ele>
        <time>2017-12-29T11:29:53Z</time>
      </trkpt>
      <trkpt lat="59.8674873" lon="17.6076955">
        <ele>26.5736</ele>
        <time>2017-12-29T11:29:59Z</time>
      </trkpt>
      <trkpt lat="59.8675692" lon="17.6076223">
        <ele>25.1317</ele>
        <time>2017-12-29T11:30:03Z</time>
      </trkpt>
      <trkpt lat="59.8676794" lon="17.6074996">
        <ele>21.2864</ele>
        <time>2017-12-29T11:30:09Z</time>
      </trkpt>
      <trkpt lat="59.8678063" lon="17.607355">
        <ele>20.325</ele>
        <time>2017-12-29T11:30:15Z</time>
      </trkpt>
      <trkpt lat="59.8679095" lon="17.6072331">
        <ele>21.2864</ele>
        <time>2017-12-29T11:30:20Z</time>
      </trkpt>
      <trkpt lat="59.86804" lon="17.6070932">
        <ele>21.2864</ele>
        <time>2017-12-29T11:30:26Z</time>
      </trkpt>
      <trkpt lat="59.8681482" lon="17.607022">
        <ele>18.8831</ele>
        <time>2017-12-29T11:30:31Z</time>
      </trkpt>
      <trkpt lat="59.8682929" lon="17.6068757">
        <ele>17.4412</ele>
        <time>2017-12-29T11:30:38Z</time>
      </trkpt>
      <trkpt lat="59.8683773" lon="17.6067697">
        <ele>17.4412</ele>
        <time>2017-12-29T11:30:42Z</time>
      </trkpt>
      <trkpt lat="59.8684988" lon="17.6067505">
        <ele>16.4797</ele>
        <time>2017-12-29T11:30:47Z</time>
      </trkpt>
      <trkpt lat="59.8686695" lon="17.6068119">
        <ele>15.5184</ele>
        <time>2017-12-29T11:30:54Z</time>
      </trkpt>
      <trkpt lat="59.8687526" lon="17.6066952">
        <ele>14.557</ele>
        <time>2017-12-29T11:30:59Z</time>
      </trkpt>
      <trkpt lat="59.8687989" lon="17.6064454">
        <ele>13.5958</ele>
        <time>2017-12-29T11:31:05Z</time>
      </trkpt>
      <trkpt lat="59.8688819" lon="17.6062952">
        <ele>13.5958</ele>
        <time>2017-12-29T11:31:10Z</time>
      </trkpt>
      <trkpt lat="59.8690039" lon="17.6061138">
        <ele>15.0377</ele>
        <time>2017-12-29T11:31:17Z</time>
      </trkpt>
      <trkpt lat="59.8691375" lon="17.6059414">
        <ele>16.9604</ele>
        <time>2017-12-29T11:31:24Z</time>
      </trkpt>
      <trkpt lat="59.8692754" lon="17.6057544">
        <ele>15.5184</ele>
        <time>2017-12-29T11:31:32Z</time>
      </trkpt>
      <trkpt lat="59.8694298" lon="17.605543">
        <ele>17.4412</ele>
        <time>2017-12-29T11:31:40Z</time>
      </trkpt>
      <trkpt lat="59.8695847" lon="17.6053274">
        <ele>19.8444</ele>
        <time>2017-12-29T11:31:48Z</time>
      </trkpt>
      <trkpt lat="59.8697251" lon="17.605169">
        <ele>18.8831</ele>
        <time>2017-12-29T11:31:55Z</time>
      </trkpt>
      <trkpt lat="59.8698684" lon="17.604968">
        <ele>16.9604</ele>
        <time>2017-12-29T11:32:03Z</time>
      </trkpt>
      <trkpt lat="59.8700106" lon="17.604739">
        <ele>15.5184</ele>
        <time>2017-12-29T11:32:11Z</time>
      </trkpt>
      <trkpt lat="59.8701375" lon="17.6045334">
        <ele>15.0377</ele>
        <time>2017-12-29T11:32:18Z</time>
      </trkpt>
      <trkpt lat="59.8702845" lon="17.604282">
        <ele>14.0764</ele>
        <time>2017-12-29T11:32:26Z</time>
      </trkpt>
      <trkpt lat="59.870416" lon="17.604032">
        <ele>13.1151</ele>
        <time>2017-12-29T11:32:34Z</time>
      </trkpt>
      <trkpt lat="59.8705478" lon="17.6038129">
        <ele>13.1151</ele>
        <time>2017-12-29T11:32:41Z</time>
      </trkpt>
      <trkpt lat="59.8706434" lon="17.6036026">
        <ele>12.6344</ele>
        <time>2017-12-29T11:32:47Z</time>
      </trkpt>
      <trkpt lat="59.8707498" lon="17.6033553">
        <ele>12.1538</ele>
        <time>2017-12-29T11:32:54Z</time>
      </trkpt>
      <trkpt lat="59.870837" lon="17.6030918">
        <ele>12.1538</ele>
        <time>2017-12-29T11:33:01Z</time>
      </trkpt>
      <trkpt lat="59.8709038" lon="17.6028582">
        <ele>11.6732</ele>
        <time>2017-12-29T11:33:07Z</time>
      </trkpt>
      <trkpt lat="59.8709548" lon="17.6026624">
        <ele>11.6732</ele>
        <time>2017-12-29T11:33:12Z</time>
      </trkpt>
      <trkpt lat="59.8710563" lon="17.6023491">
        <ele>12.1538</ele>
        <time>2017-12-29T11:33:20Z</time>
      </trkpt>
      <trkpt lat="59.871172" lon="17.6021118">
        <ele>13.1151</ele>
        <time>2017-12-29T11:33:27Z</time>
      </trkpt>
      <trkpt lat="59.8712366" lon="17.6018704">
        <ele>13.1151</ele>
        <time>2017-12-29T11:33:33Z</time>
      </trkpt>
      <trkpt lat="59.8713023" lon="17.6015859">
        <ele>13.1151</ele>
        <time>2017-12-29T11:33:40Z</time>
      </trkpt>
      <trkpt lat="59.8713702" lon="17.6013895">
        <ele>12.6344</ele>
        <time>2017-12-29T11:33:45Z</time>
      </trkpt>
      <trkpt lat="59.8714687" lon="17.6011144">
        <ele>12.6344</ele>
        <time>2017-12-29T11:33:52Z</time>
      </trkpt>
      <trkpt lat="59.8715692" lon="17.600841">
        <ele>12.6344</ele>
        <time>2017-12-29T11:33:59Z</time>
      </trkpt>
      <trkpt lat="59.8716458" lon="17.6006447">
        <ele>12.6344</ele>
        <time>2017-12-29T11:34:04Z</time>
      </trkpt>
      <trkpt lat="59.8717385" lon="17.6004162">
        <ele>13.1151</ele>
        <time>2017-12-29T11:34:10Z</time>
      </trkpt>
      <trkpt lat="59.871814" lon="17.6001691">
        <ele>13.5958</ele>
        <time>2017-12-29T11:34:17Z</time>
      </trkpt>
      <trkpt lat="59.8719106" lon="17.5999906">
        <ele>14.557</ele>
        <time>2017-12-29T11:34:22Z</time>
      </trkpt>
      <trkpt lat="59.871988" lon="17.5999713">
        <ele>13.5958</ele>
        <time>2017-12-29T11:34:24Z</time>
      </trkpt>
      <trkpt lat="59.8720577" lon="17.5997974">
        <ele>13.1151</ele>
        <time>2017-12-29T11:34:29Z</time>
      </trkpt>
      <trkpt lat="59.8721198" lon="17.5996083">
        <ele>12.6344</ele>
        <time>2017-12-29T11:34:34Z</time>
      </trkpt>
      <trkpt lat="59.872203" lon="17.5993932">
        <ele>12.6344</ele>
        <time>2017-12-29T11:34:40Z</time>
      </trkpt>
      <trkpt lat="59.8722839" lon="17.5991747">
        <ele>13.1151</ele>
        <time>2017-12-29T11:34:46Z</time>
      </trkpt>
      <trkpt lat="59.8723659" lon="17.5989483">
        <ele>13.5958</ele>
        <time>2017-12-29T11:34:52Z</time>
      </trkpt>
      <trkpt lat="59.8724674" lon="17.5987413">
        <ele>14.557</ele>
        <time>2017-12-29T11:34:59Z</time>
      </trkpt>
      <trkpt lat="59.8724223" lon="17.5985281">
        <ele>15.0377</ele>
        <time>2017-12-29T11:35:05Z</time>
      </trkpt>
      <trkpt lat="59.87237" lon="17.598388">
        <ele>15.999</ele>
        <time>2017-12-29T11:35:09Z</time>
      </trkpt>
      <trkpt lat="59.8723446" lon="17.5981728">
        <ele>17.4412</ele>
        <time>2017-12-29T11:35:14Z</time>
      </trkpt>
      <trkpt lat="59.8723435" lon="17.5981332">
        <ele>17.9218</ele>
        <time>2017-12-29T11:35:15Z</time>
      </trkpt>
      <trkpt lat="59.8723059" lon="17.5979053">
        <ele>18.8831</ele>
        <time>2017-12-29T11:35:21Z</time>
      </trkpt>
      <trkpt lat="59.8722911" lon="17.5977432">
        <ele>18.4023</ele>
        <time>2017-12-29T11:35:25Z</time>
      </trkpt>
      <trkpt lat="59.8723032" lon="17.5976634">
        <ele>17.9218</ele>
        <time>2017-12-29T11:35:27Z</time>
      </trkpt>
      <trkpt lat="59.8722741" lon="17.5974683">
        <ele>17.4412</ele>
        <time>2017-12-29T11:35:33Z</time>
      </trkpt>
      <trkpt lat="59.8722321" lon="17.5973299">
        <ele>17.4412</ele>
        <time>2017-12-29T11:35:38Z</time>
      </trkpt>
      <trkpt lat="59.8721412" lon="17.5971257">
        <ele>17.4412</ele>
        <time>2017-12-29T11:35:45Z</time>
      </trkpt>
      <trkpt lat="59.8720854" lon="17.5969524">
        <ele>17.9218</ele>
        <time>2017-12-29T11:35:50Z</time>
      </trkpt>
      <trkpt lat="59.8720707" lon="17.5969153">
        <ele>17.9218</ele>
        <time>2017-12-29T11:35:51Z</time>
      </trkpt>
      <trkpt lat="59.8720172" lon="17.5967439">
        <ele>17.9218</ele>
        <time>2017-12-29T11:35:55Z</time>
      </trkpt>
      <trkpt lat="59.8719643" lon="17.5964954">
        <ele>19.3638</ele>
        <time>2017-12-29T11:36:01Z</time>
      </trkpt>
      <trkpt lat="59.8719212" lon="17.5962882">
        <ele>20.8057</ele>
        <time>2017-12-29T11:36:06Z</time>
      </trkpt>
      <trkpt lat="59.8719116" lon="17.5960747">
        <ele>21.2864</ele>
        <time>2017-12-29T11:36:11Z</time>
      </trkpt>
      <trkpt lat="59.8718855" lon="17.5957724">
        <ele>21.2864</ele>
        <time>2017-12-29T11:36:18Z</time>
      </trkpt>
      <trkpt lat="59.871871" lon="17.5955154">
        <ele>22.2476</ele>
        <time>2017-12-29T11:36:24Z</time>
      </trkpt>
      <trkpt lat="59.8718467" lon="17.5952261">
        <ele>23.209</ele>
        <time>2017-12-29T11:36:31Z</time>
      </trkpt>
      <trkpt lat="59.871837" lon="17.5949736">
        <ele>23.6896</ele>
        <time>2017-12-29T11:36:37Z</time>
      </trkpt>
      <trkpt lat="59.8718318" lon="17.5946498">
        <ele>24.1703</ele>
        <time>2017-12-29T11:36:45Z</time>
      </trkpt>
      <trkpt lat="59.8718277" lon="17.5944452">
        <ele>24.1703</ele>
        <time>2017-12-29T11:36:50Z</time>
      </trkpt>
      <trkpt lat="59.8718091" lon="17.5942027">
        <ele>24.1703</ele>
        <time>2017-12-29T11:36:56Z</time>
      </trkpt>
      <trkpt lat="59.8717878" lon="17.5939022">
        <ele>23.209</ele>
        <time>2017-12-29T11:37:03Z</time>
      </trkpt>
      <trkpt lat="59.8717478" lon="17.5936493">
        <ele>23.209</ele>
        <time>2017-12-29T11:37:09Z</time>
      </trkpt>
      <trkpt lat="59.8716697" lon="17.5933184">
        <ele>23.209</ele>
        <time>2017-12-29T11:37:17Z</time>
      </trkpt>
      <trkpt lat="59.8716105" lon="17.5929698">
        <ele>22.7283</ele>
        <time>2017-12-29T11:37:25Z</time>
      </trkpt>
      <trkpt lat="59.8715481" lon="17.592673">
        <ele>22.2476</ele>
        <time>2017-12-29T11:37:32Z</time>
      </trkpt>
      <trkpt lat="59.8714763" lon="17.5923874">
        <ele>21.2864</ele>
        <time>2017-12-29T11:37:39Z</time>
      </trkpt>
      <trkpt lat="59.8713714" lon="17.5921469">
        <ele>19.8444</ele>
        <time>2017-12-29T11:37:46Z</time>
      </trkpt>
      <trkpt lat="59.8712423" lon="17.5919442">
        <ele>20.8057</ele>
        <time>2017-12-29T11:37:53Z</time>
      </trkpt>
      <trkpt lat="59.8710699" lon="17.5917121">
        <ele>21.2864</ele>
        <time>2017-12-29T11:38:02Z</time>
      </trkpt>
      <trkpt lat="59.870931" lon="17.5915398">
        <ele>21.2864</ele>
        <time>2017-12-29T11:38:09Z</time>
      </trkpt>
      <trkpt lat="59.8707756" lon="17.5913459">
        <ele>21.2864</ele>
        <time>2017-12-29T11:38:17Z</time>
      </trkpt>
      <trkpt lat="59.8706272" lon="17.5911432">
        <ele>21.767</ele>
        <time>2017-12-29T11:38:25Z</time>
      </trkpt>
      <trkpt lat="59.870499" lon="17.5909521">
        <ele>21.767</ele>
        <time>2017-12-29T11:38:32Z</time>
      </trkpt>
      <trkpt lat="59.870373" lon="17.5907548">
        <ele>22.2476</ele>
        <time>2017-12-29T11:38:39Z</time>
      </trkpt>
      <trkpt lat="59.8702633" lon="17.5905238">
        <ele>22.2476</ele>
        <time>2017-12-29T11:38:46Z</time>
      </trkpt>
      <trkpt lat="59.8701688" lon="17.5902643">
        <ele>22.2476</ele>
        <time>2017-12-29T11:38:53Z</time>
      </trkpt>
      <trkpt lat="59.8700855" lon="17.5899793">
        <ele>21.767</ele>
        <time>2017-12-29T11:39:00Z</time>
      </trkpt>
      <trkpt lat="59.8699815" lon="17.5896536">
        <ele>20.8057</ele>
        <time>2017-12-29T11:39:08Z</time>
      </trkpt>
      <trkpt lat="59.8698934" lon="17.5894381">
        <ele>21.767</ele>
        <time>2017-12-29T11:39:14Z</time>
      </trkpt>
      <trkpt lat="59.8697696" lon="17.5891713">
        <ele>22.7283</ele>
        <time>2017-12-29T11:39:22Z</time>
      </trkpt>
      <trkpt lat="59.8696898" lon="17.5890184">
        <ele>22.7283</ele>
        <time>2017-12-29T11:39:27Z</time>
      </trkpt>
      <trkpt lat="59.8696013" lon="17.5890283">
        <ele>22.7283</ele>
        <time>2017-12-29T11:39:31Z</time>
      </trkpt>
      <trkpt lat="59.8693998" lon="17.5891189">
        <ele>23.6896</ele>
        <time>2017-12-29T11:39:40Z</time>
      </trkpt>
      <trkpt lat="59.8692666" lon="17.5891536">
        <ele>23.6896</ele>
        <time>2017-12-29T11:39:46Z</time>
      </trkpt>
      <trkpt lat="59.8691313" lon="17.5892138">
        <ele>23.209</ele>
        <time>2017-12-29T11:39:52Z</time>
      </trkpt>
      <trkpt lat="59.869033" lon="17.5892827">
        <ele>22.2476</ele>
        <time>2017-12-29T11:39:57Z</time>
      </trkpt>
      <trkpt lat="59.8689549" lon="17.5894381">
        <ele>21.2864</ele>
        <time>2017-12-29T11:40:02Z</time>
      </trkpt>
      <trkpt lat="59.8688181" lon="17.5896143">
        <ele>21.767</ele>
        <time>2017-12-29T11:40:09Z</time>
      </trkpt>
      <trkpt lat="59.8687139" lon="17.5896794">
        <ele>20.8057</ele>
        <time>2017-12-29T11:40:14Z</time>
      </trkpt>
      <trkpt lat="59.8686283" lon="17.5897426">
        <ele>22.2476</ele>
        <time>2017-12-29T11:40:19Z</time>
      </trkpt>
      <trkpt lat="59.8685808" lon="17.5897785">
        <ele>23.6896</ele>
        <time>2017-12-29T11:40:22Z</time>
      </trkpt>
      <trkpt lat="59.8685596" lon="17.5897906">
        <ele>23.209</ele>
        <time>2017-12-29T11:40:24Z</time>
      </trkpt>
      <trkpt lat="59.8685373" lon="17.5898082">
        <ele>23.209</ele>
        <time>2017-12-29T11:40:27Z</time>
      </trkpt>
      <trkpt lat="59.8684176" lon="17.5898975">
        <ele>23.209</ele>
        <time>2017-12-29T11:40:33Z</time>
      </trkpt>
      <trkpt lat="59.8682685" lon="17.5899596">
        <ele>20.325</ele>
        <time>2017-12-29T11:40:39Z</time>
      </trkpt>
      <trkpt lat="59.8680921" lon="17.5899644">
        <ele>17.9218</ele>
        <time>2017-12-29T11:40:46Z</time>
      </trkpt>
      <trkpt lat="59.867982" lon="17.5899455">
        <ele>15.999</ele>
        <time>2017-12-29T11:40:50Z</time>
      </trkpt>
      <trkpt lat="59.8678685" lon="17.5899574">
        <ele>17.9218</ele>
        <time>2017-12-29T11:40:55Z</time>
      </trkpt>
      <trkpt lat="59.8677401" lon="17.5899587">
        <ele>18.4023</ele>
        <time>2017-12-29T11:41:02Z</time>
      </trkpt>
      <trkpt lat="59.8676016" lon="17.5899871">
        <ele>18.8831</ele>
        <time>2017-12-29T11:41:09Z</time>
      </trkpt>
      <trkpt lat="59.8674194" lon="17.5901012">
        <ele>18.8831</ele>
        <time>2017-12-29T11:41:17Z</time>
      </trkpt>
      <trkpt lat="59.8672972" lon="17.5901571">
        <ele>17.9218</ele>
        <time>2017-12-29T11:41:23Z</time>
      </trkpt>
      <trkpt lat="59.8672807" lon="17.5901715">
        <ele>17.9218</ele>
        <time>2017-12-29T11:41:24Z</time>
      </trkpt>
      <trkpt lat="59.8672231" lon="17.5902218">
        <ele>16.4797</ele>
        <time>2017-12-29T11:41:28Z</time>
      </trkpt>
      <trkpt lat="59.8671065" lon="17.5903285">
        <ele>14.557</ele>
        <time>2017-12-29T11:41:34Z</time>
      </trkpt>
      <trkpt lat="59.8670227" lon="17.5904201">
        <ele>13.1151</ele>
        <time>2017-12-29T11:41:39Z</time>
      </trkpt>
      <trkpt lat="59.8669359" lon="17.5904922">
        <ele>12.6344</ele>
        <time>2017-12-29T11:41:44Z</time>
      </trkpt>
      <trkpt lat="59.8669258" lon="17.5905077">
        <ele>12.1538</ele>
        <time>2017-12-29T11:41:45Z</time>
      </trkpt>
      <trkpt lat="59.866874" lon="17.5904837">
        <ele>11.6732</ele>
        <time>2017-12-29T11:41:49Z</time>
      </trkpt>
      <trkpt lat="59.8667816" lon="17.5904746">
        <ele>12.1538</ele>
        <time>2017-12-29T11:41:55Z</time>
      </trkpt>
      <trkpt lat="59.8667477" lon="17.5904956">
        <ele>12.6344</ele>
        <time>2017-12-29T11:41:57Z</time>
      </trkpt>
      <trkpt lat="59.8666342" lon="17.590532">
        <ele>15.0377</ele>
        <time>2017-12-29T11:42:04Z</time>
      </trkpt>
      <trkpt lat="59.8664847" lon="17.5905462">
        <ele>16.4797</ele>
        <time>2017-12-29T11:42:12Z</time>
      </trkpt>
      <trkpt lat="59.8663425" lon="17.5905891">
        <ele>16.9604</ele>
        <time>2017-12-29T11:42:19Z</time>
      </trkpt>
      <trkpt lat="59.8661901" lon="17.5906191">
        <ele>17.9218</ele>
        <time>2017-12-29T11:42:26Z</time>
      </trkpt>
      <trkpt lat="59.8660563" lon="17.5906332">
        <ele>17.9218</ele>
        <time>2017-12-29T11:42:32Z</time>
      </trkpt>
      <trkpt lat="59.8659522" lon="17.5906849">
        <ele>17.4412</ele>
        <time>2017-12-29T11:42:37Z</time>
      </trkpt>
      <trkpt lat="59.8659186" lon="17.5908941">
        <ele>18.4023</ele>
        <time>2017-12-29T11:42:43Z</time>
      </trkpt>
      <trkpt lat="59.865885" lon="17.5910901">
        <ele>18.8831</ele>
        <time>2017-12-29T11:42:48Z</time>
      </trkpt>
      <trkpt lat="59.8658701" lon="17.5911189">
        <ele>18.8831</ele>
        <time>2017-12-29T11:42:49Z</time>
      </trkpt>
      <trkpt lat="59.8657207" lon="17.591263">
        <ele>20.325</ele>
        <time>2017-12-29T11:42:57Z</time>
      </trkpt>
      <trkpt lat="59.865615" lon="17.5912754">
        <ele>20.325</ele>
        <time>2017-12-29T11:43:04Z</time>
      </trkpt>
      <trkpt lat="59.8655586" lon="17.5913589">
        <ele>20.8057</ele>
        <time>2017-12-29T11:43:08Z</time>
      </trkpt>
      <trkpt lat="59.8654825" lon="17.5915028">
        <ele>21.767</ele>
        <time>2017-12-29T11:43:14Z</time>
      </trkpt>
      <trkpt lat="59.8654272" lon="17.5916033">
        <ele>21.2864</ele>
        <time>2017-12-29T11:43:18Z</time>
      </trkpt>
      <trkpt lat="59.8653914" lon="17.5916889">
        <ele>21.767</ele>
        <time>2017-12-29T11:43:21Z</time>
      </trkpt>
      <trkpt lat="59.8653124" lon="17.5916313">
        <ele>22.7283</ele>
        <time>2017-12-29T11:43:26Z</time>
      </trkpt>
      <trkpt lat="59.8652598" lon="17.5915822">
        <ele>23.209</ele>
        <time>2017-12-29T11:43:29Z</time>
      </trkpt>
      <trkpt lat="59.8650666" lon="17.591578">
        <ele>23.209</ele>
        <time>2017-12-29T11:43:38Z</time>
      </trkpt>
      <trkpt lat="59.8649276" lon="17.5915985">
        <ele>22.2476</ele>
        <time>2017-12-29T11:43:44Z</time>
      </trkpt>
      <trkpt lat="59.8648338" lon="17.5916438">
        <ele>21.767</ele>
        <time>2017-12-29T11:43:49Z</time>
      </trkpt>
      <trkpt lat="59.8647217" lon="17.5916604">
        <ele>22.2476</ele>
        <time>2017-12-29T11:43:54Z</time>
      </trkpt>
      <trkpt lat="59.8645827" lon="17.5916881">
        <ele>21.2864</ele>
        <time>2017-12-29T11:44:00Z</time>
      </trkpt>
      <trkpt lat="59.8644284" lon="17.5916788">
        <ele>21.767</ele>
        <time>2017-12-29T11:44:06Z</time>
      </trkpt>
      <trkpt lat="59.8643039" lon="17.5916417">
        <ele>20.8057</ele>
        <time>2017-12-29T11:44:12Z</time>
      </trkpt>
      <trkpt lat="59.8641777" lon="17.5916099">
        <ele>21.2864</ele>
        <time>2017-12-29T11:44:17Z</time>
      </trkpt>
      <trkpt lat="59.8640262" lon="17.5915776">
        <ele>21.2864</ele>
        <time>2017-12-29T11:44:24Z</time>
      </trkpt>
      <trkpt lat="59.8639684" lon="17.5915631">
        <ele>21.2864</ele>
        <time>2017-12-29T11:44:27Z</time>
      </trkpt>
      <trkpt lat="59.8638182" lon="17.5915394">
        <ele>21.2864</ele>
        <time>2017-12-29T11:44:34Z</time>
      </trkpt>
      <trkpt lat="59.8637679" lon="17.591506">
        <ele>21.767</ele>
        <time>2017-12-29T11:44:36Z</time>
      </trkpt>
      <trkpt lat="59.8636676" lon="17.591412">
        <ele>21.767</ele>
        <time>2017-12-29T11:44:41Z</time>
      </trkpt>
      <trkpt lat="59.8636297" lon="17.5913696">
        <ele>21.2864</ele>
        <time>2017-12-29T11:44:43Z</time>
      </trkpt>
      <trkpt lat="59.8634852" lon="17.5912289">
        <ele>22.2476</ele>
        <time>2017-12-29T11:44:50Z</time>
      </trkpt>
      <trkpt lat="59.8632976" lon="17.5910914">
        <ele>22.2476</ele>
        <time>2017-12-29T11:44:58Z</time>
      </trkpt>
      <trkpt lat="59.8631577" lon="17.5909899">
        <ele>22.7283</ele>
        <time>2017-12-29T11:45:04Z</time>
      </trkpt>
      <trkpt lat="59.8630373" lon="17.5909207">
        <ele>23.209</ele>
        <time>2017-12-29T11:45:09Z</time>
      </trkpt>
      <trkpt lat="59.8628488" lon="17.5907814">
        <ele>22.7283</ele>
        <time>2017-12-29T11:45:17Z</time>
      </trkpt>
      <trkpt lat="59.8627097" lon="17.5906746">
        <ele>23.209</ele>
        <time>2017-12-29T11:45:23Z</time>
      </trkpt>
      <trkpt lat="59.8625197" lon="17.5905539">
        <ele>23.6896</ele>
        <time>2017-12-29T11:45:31Z</time>
      </trkpt>
      <trkpt lat="59.8623564" lon="17.5904376">
        <ele>23.209</ele>
        <time>2017-12-29T11:45:38Z</time>
      </trkpt>
      <trkpt lat="59.8621947" lon="17.5903261">
        <ele>23.209</ele>
        <time>2017-12-29T11:45:45Z</time>
      </trkpt>
      <trkpt lat="59.8621337" lon="17.5902473">
        <ele>23.209</ele>
        <time>2017-12-29T11:45:48Z</time>
      </trkpt>
      <trkpt lat="59.8619839" lon="17.5901171">
        <ele>23.6896</ele>
        <time>2017-12-29T11:45:55Z</time>
      </trkpt>
      <trkpt lat="59.8619181" lon="17.5900787">
        <ele>24.1703</ele>
        <time>2017-12-29T11:45:58Z</time>
      </trkpt>
      <trkpt lat="59.8617414" lon="17.5899473">
        <ele>24.651</ele>
        <time>2017-12-29T11:46:06Z</time>
      </trkpt>
      <trkpt lat="59.8615882" lon="17.5898477">
        <ele>25.1317</ele>
        <time>2017-12-29T11:46:13Z</time>
      </trkpt>
      <trkpt lat="59.8614389" lon="17.5897272">
        <ele>24.651</ele>
        <time>2017-12-29T11:46:20Z</time>
      </trkpt>
      <trkpt lat="59.8613965" lon="17.5896997">
        <ele>24.1703</ele>
        <time>2017-12-29T11:46:22Z</time>
      </trkpt>
      <trkpt lat="59.8612805" lon="17.5896711">
        <ele>24.651</ele>
        <time>2017-12-29T11:46:27Z</time>
      </trkpt>
      <trkpt lat="59.8611373" lon="17.5896152">
        <ele>24.651</ele>
        <time>2017-12-29T11:46:33Z</time>
      </trkpt>
      <trkpt lat="59.8609739" lon="17.5895484">
        <ele>24.1703</ele>
        <time>2017-12-29T11:46:40Z</time>
      </trkpt>
      <trkpt lat="59.8608359" lon="17.5895149">
        <ele>24.651</ele>
        <time>2017-12-29T11:46:46Z</time>
      </trkpt>
      <trkpt lat="59.8607058" lon="17.5894126">
        <ele>24.651</ele>
        <time>2017-12-29T11:46:52Z</time>
      </trkpt>
      <trkpt lat="59.8605542" lon="17.5892723">
        <ele>25.6123</ele>
        <time>2017-12-29T11:46:59Z</time>
      </trkpt>
      <trkpt lat="59.8604579" lon="17.58914">
        <ele>25.6123</ele>
        <time>2017-12-29T11:47:04Z</time>
      </trkpt>
      <trkpt lat="59.8603475" lon="17.5890518">
        <ele>26.0929</ele>
        <time>2017-12-29T11:47:09Z</time>
      </trkpt>
      <trkpt lat="59.860247" lon="17.5889475">
        <ele>26.0929</ele>
        <time>2017-12-29T11:47:14Z</time>
      </trkpt>
      <trkpt lat="59.8601235" lon="17.5888686">
        <ele>26.5736</ele>
        <time>2017-12-29T11:47:20Z</time>
      </trkpt>
      <trkpt lat="59.8600373" lon="17.5888108">
        <ele>26.0929</ele>
        <time>2017-12-29T11:47:24Z</time>
      </trkpt>
      <trkpt lat="59.8600153" lon="17.5887932">
        <ele>26.0929</ele>
        <time>2017-12-29T11:47:25Z</time>
      </trkpt>
      <trkpt lat="59.8599325" lon="17.5886567">
        <ele>26.0929</ele>
        <time>2017-12-29T11:47:30Z</time>
      </trkpt>
      <trkpt lat="59.8598492" lon="17.5884873">
        <ele>25.6123</ele>
        <time>2017-12-29T11:47:35Z</time>
      </trkpt>
      <trkpt lat="59.8597948" lon="17.5883331">
        <ele>23.6896</ele>
        <time>2017-12-29T11:47:40Z</time>
      </trkpt>
      <trkpt lat="59.859705" lon="17.588186">
        <ele>23.209</ele>
        <time>2017-12-29T11:47:46Z</time>
      </trkpt>
      <trkpt lat="59.8595872" lon="17.5880244">
        <ele>21.2864</ele>
        <time>2017-12-29T11:47:52Z</time>
      </trkpt>
      <trkpt lat="59.8594651" lon="17.587868">
        <ele>21.2864</ele>
        <time>2017-12-29T11:47:58Z</time>
      </trkpt>
      <trkpt lat="59.859355" lon="17.5876179">
        <ele>21.2864</ele>
        <time>2017-12-29T11:48:05Z</time>
      </trkpt>
      <trkpt lat="59.859268" lon="17.5874368">
        <ele>22.2476</ele>
        <time>2017-12-29T11:48:10Z</time>
      </trkpt>
      <trkpt lat="59.8591535" lon="17.5872312">
        <ele>24.651</ele>
        <time>2017-12-29T11:48:16Z</time>
      </trkpt>
      <trkpt lat="59.8590462" lon="17.5870921">
        <ele>26.5736</ele>
        <time>2017-12-29T11:48:21Z</time>
      </trkpt>
      <trkpt lat="59.8589178" lon="17.5868893">
        <ele>28.0155</ele>
        <time>2017-12-29T11:48:28Z</time>
      </trkpt>
      <trkpt lat="59.858823" lon="17.5867594">
        <ele>28.4962</ele>
        <time>2017-12-29T11:48:33Z</time>
      </trkpt>
      <trkpt lat="59.8586816" lon="17.5865787">
        <ele>28.4962</ele>
        <time>2017-12-29T11:48:40Z</time>
      </trkpt>
      <trkpt lat="59.8585392" lon="17.5864065">
        <ele>28.4962</ele>
        <time>2017-12-29T11:48:47Z</time>
      </trkpt>
      <trkpt lat="59.8583864" lon="17.5863274">
        <ele>28.4962</ele>
        <time>2017-12-29T11:48:54Z</time>
      </trkpt>
      <trkpt lat="59.8582295" lon="17.5862948">
        <ele>28.0155</ele>
        <time>2017-12-29T11:49:01Z</time>
      </trkpt>
      <trkpt lat="59.8580963" lon="17.5862446">
        <ele>28.0155</ele>
        <time>2017-12-29T11:49:07Z</time>
      </trkpt>
      <trkpt lat="59.8579336" lon="17.5861814">
        <ele>28.9769</ele>
        <time>2017-12-29T11:49:14Z</time>
      </trkpt>
      <trkpt lat="59.8578026" lon="17.5861265">
        <ele>29.9381</ele>
        <time>2017-12-29T11:49:20Z</time>
      </trkpt>
      <trkpt lat="59.8576359" lon="17.5860772">
        <ele>30.4188</ele>
        <time>2017-12-29T11:49:27Z</time>
      </trkpt>
      <trkpt lat="59.8575527" lon="17.5859603">
        <ele>30.8995</ele>
        <time>2017-12-29T11:49:31Z</time>
      </trkpt>
      <trkpt lat="59.857463" lon="17.5857878">
        <ele>31.3801</ele>
        <time>2017-12-29T11:49:36Z</time>
      </trkpt>
      <trkpt lat="59.8573672" lon="17.5856971">
        <ele>31.8607</ele>
        <time>2017-12-29T11:49:41Z</time>
      </trkpt>
      <trkpt lat="59.8572229" lon="17.5856168">
        <ele>32.3416</ele>
        <time>2017-12-29T11:49:48Z</time>
      </trkpt>
      <trkpt lat="59.8571168" lon="17.5855538">
        <ele>31.8607</ele>
        <time>2017-12-29T11:49:53Z</time>
      </trkpt>
      <trkpt lat="59.856934" lon="17.5854542">
        <ele>31.3801</ele>
        <time>2017-12-29T11:50:01Z</time>
      </trkpt>
      <trkpt lat="59.8567515" lon="17.5853784">
        <ele>30.8995</ele>
        <time>2017-12-29T11:50:08Z</time>
      </trkpt>
      <trkpt lat="59.8566391" lon="17.5852935">
        <ele>29.4575</ele>
        <time>2017-12-29T11:50:13Z</time>
      </trkpt>
      <trkpt lat="59.8564905" lon="17.5852256">
        <ele>28.9769</ele>
        <time>2017-12-29T11:50:19Z</time>
      </trkpt>
      <trkpt lat="59.8563325" lon="17.5851526">
        <ele>28.4962</ele>
        <time>2017-12-29T11:50:26Z</time>
      </trkpt>
      <trkpt lat="59.8562036" lon="17.5850532">
        <ele>26.5736</ele>
        <time>2017-12-29T11:50:32Z</time>
      </trkpt>
      <trkpt lat="59.8560548" lon="17.5850505">
        <ele>27.0543</ele>
        <time>2017-12-29T11:50:38Z</time>
      </trkpt>
      <trkpt lat="59.8559689" lon="17.584967">
        <ele>26.5736</ele>
        <time>2017-12-29T11:50:42Z</time>
      </trkpt>
      <trkpt lat="59.8558399" lon="17.5847673">
        <ele>27.0543</ele>
        <time>2017-12-29T11:50:49Z</time>
      </trkpt>
      <trkpt lat="59.8557324" lon="17.5845823">
        <ele>26.5736</ele>
        <time>2017-12-29T11:50:55Z</time>
      </trkpt>
      <trkpt lat="59.85559" lon="17.584394">
        <ele>26.0929</ele>
        <time>2017-12-29T11:51:02Z</time>
      </trkpt>
      <trkpt lat="59.8554673" lon="17.584245">
        <ele>26.0929</ele>
        <time>2017-12-29T11:51:08Z</time>
      </trkpt>
      <trkpt lat="59.8553171" lon="17.5840842">
        <ele>25.6123</ele>
        <time>2017-12-29T11:51:15Z</time>
      </trkpt>
      <trkpt lat="59.8552986" lon="17.5840573">
        <ele>25.6123</ele>
        <time>2017-12-29T11:51:16Z</time>
      </trkpt>
      <trkpt lat="59.8551994" lon="17.5839529">
        <ele>26.0929</ele>
        <time>2017-12-29T11:51:21Z</time>
      </trkpt>
      <trkpt lat="59.8550737" lon="17.5838125">
        <ele>24.651</ele>
        <time>2017-12-29T11:51:27Z</time>
      </trkpt>
      <trkpt lat="59.8549338" lon="17.583654">
        <ele>25.1317</ele>
        <time>2017-12-29T11:51:34Z</time>
      </trkpt>
      <trkpt lat="59.8547965" lon="17.5834945">
        <ele>26.0929</ele>
        <time>2017-12-29T11:51:41Z</time>
      </trkpt>
      <trkpt lat="59.854679" lon="17.583368">
        <ele>26.5736</ele>
        <time>2017-12-29T11:51:47Z</time>
      </trkpt>
      <trkpt lat="59.8545601" lon="17.5832288">
        <ele>27.5349</ele>
        <time>2017-12-29T11:51:53Z</time>
      </trkpt>
      <trkpt lat="59.8544339" lon="17.5830795">
        <ele>27.5349</ele>
        <time>2017-12-29T11:52:00Z</time>
      </trkpt>
      <trkpt lat="59.8543398" lon="17.58296">
        <ele>27.5349</ele>
        <time>2017-12-29T11:52:06Z</time>
      </trkpt>
      <trkpt lat="59.854241" lon="17.5828317">
        <ele>26.5736</ele>
        <time>2017-12-29T11:52:12Z</time>
      </trkpt>
      <trkpt lat="59.8541928" lon="17.5827765">
        <ele>26.5736</ele>
        <time>2017-12-29T11:52:15Z</time>
      </trkpt>
      <trkpt lat="59.8541289" lon="17.5828336">
        <ele>26.0929</ele>
        <time>2017-12-29T11:52:19Z</time>
      </trkpt>
      <trkpt lat="59.8540339" lon="17.5830908">
        <ele>25.6123</ele>
        <time>2017-12-29T11:52:26Z</time>
      </trkpt>
      <trkpt lat="59.8539165" lon="17.5833932">
        <ele>24.1703</ele>
        <time>2017-12-29T11:52:34Z</time>
      </trkpt>
      <trkpt lat="59.8538066" lon="17.5836429">
        <ele>22.7283</ele>
        <time>2017-12-29T11:52:41Z</time>
      </trkpt>
      <trkpt lat="59.8536914" lon="17.5838936">
        <ele>20.8057</ele>
        <time>2017-12-29T11:52:48Z</time>
      </trkpt>
      <trkpt lat="59.8535788" lon="17.5841415">
        <ele>20.325</ele>
        <time>2017-12-29T11:52:55Z</time>
      </trkpt>
      <trkpt lat="59.8534667" lon="17.5844003">
        <ele>20.8057</ele>
        <time>2017-12-29T11:53:02Z</time>
      </trkpt>
      <trkpt lat="59.8533658" lon="17.5846165">
        <ele>19.8444</ele>
        <time>2017-12-29T11:53:08Z</time>
      </trkpt>
      <trkpt lat="59.8532827" lon="17.5847977">
        <ele>19.8444</ele>
        <time>2017-12-29T11:53:13Z</time>
      </trkpt>
      <trkpt lat="59.8531975" lon="17.5849801">
        <ele>19.8444</ele>
        <time>2017-12-29T11:53:18Z</time>
      </trkpt>
      <trkpt lat="59.8531238" lon="17.5851589">
        <ele>19.8444</ele>
        <time>2017-12-29T11:53:23Z</time>
      </trkpt>
      <trkpt lat="59.8530217" lon="17.585358">
        <ele>19.3638</ele>
        <time>2017-12-29T11:53:29Z</time>
      </trkpt>
      <trkpt lat="59.8529187" lon="17.5855371">
        <ele>18.4023</ele>
        <time>2017-12-29T11:53:35Z</time>
      </trkpt>
      <trkpt lat="59.8528135" lon="17.585746">
        <ele>17.4412</ele>
        <time>2017-12-29T11:53:41Z</time>
      </trkpt>
      <trkpt lat="59.8527219" lon="17.5858156">
        <ele>17.4412</ele>
        <time>2017-12-29T11:53:45Z</time>
      </trkpt>
      <trkpt lat="59.8525785" lon="17.5857183">
        <ele>15.999</ele>
        <time>2017-12-29T11:53:52Z</time>
      </trkpt>
      <trkpt lat="59.8524593" lon="17.5857261">
        <ele>15.0377</ele>
        <time>2017-12-29T11:53:57Z</time>
      </trkpt>
      <trkpt lat="59.85234" lon="17.5857994">
        <ele>14.557</ele>
        <time>2017-12-29T11:54:03Z</time>
      </trkpt>
      <trkpt lat="59.8523411" lon="17.5857803">
        <ele>13.5958</ele>
        <time>2017-12-29T11:54:06Z</time>
      </trkpt>
      <trkpt lat="59.8521793" lon="17.5857965">
        <ele>5.90527</ele>
        <time>2017-12-29T11:54:12Z</time>
      </trkpt>
      <trkpt lat="59.8520728" lon="17.5859475">
        <ele>9.75061</ele>
        <time>2017-12-29T11:54:16Z</time>
      </trkpt>
      <trkpt lat="59.8519018" lon="17.5861244">
        <ele>12.1538</ele>
        <time>2017-12-29T11:54:23Z</time>
      </trkpt>
      <trkpt lat="59.8518733" lon="17.5861601">
        <ele>13.5958</ele>
        <time>2017-12-29T11:54:25Z</time>
      </trkpt>
      <trkpt lat="59.8516936" lon="17.5863239">
        <ele>16.4797</ele>
        <time>2017-12-29T11:54:31Z</time>
      </trkpt>
      <trkpt lat="59.8515802" lon="17.5864248">
        <ele>17.4412</ele>
        <time>2017-12-29T11:54:37Z</time>
      </trkpt>
      <trkpt lat="59.8514579" lon="17.5865356">
        <ele>17.9218</ele>
        <time>2017-12-29T11:54:44Z</time>
      </trkpt>
      <trkpt lat="59.8513443" lon="17.5866459">
        <ele>18.4023</ele>
        <time>2017-12-29T11:54:50Z</time>
      </trkpt>
      <trkpt lat="59.8512321" lon="17.5867696">
        <ele>18.4023</ele>
        <time>2017-12-29T11:54:56Z</time>
      </trkpt>
      <trkpt lat="59.851114" lon="17.5868864">
        <ele>18.8831</ele>
        <time>2017-12-29T11:55:02Z</time>
      </trkpt>
      <trkpt lat="59.8509887" lon="17.5869868">
        <ele>18.4023</ele>
        <time>2017-12-29T11:55:08Z</time>
      </trkpt>
      <trkpt lat="59.8508451" lon="17.5870786">
        <ele>18.4023</ele>
        <time>2017-12-29T11:55:15Z</time>
      </trkpt>
      <trkpt lat="59.8507343" lon="17.5870215">
        <ele>18.8831</ele>
        <time>2017-12-29T11:55:20Z</time>
      </trkpt>
      <trkpt lat="59.850632" lon="17.5869341">
        <ele>19.3638</ele>
        <time>2017-12-29T11:55:25Z</time>
      </trkpt>
      <trkpt lat="59.8505095" lon="17.5868227">
        <ele>19.3638</ele>
        <time>2017-12-29T11:55:31Z</time>
      </trkpt>
      <trkpt lat="59.8504296" lon="17.5867273">
        <ele>18.8831</ele>
        <time>2017-12-29T11:55:35Z</time>
      </trkpt>
      <trkpt lat="59.8503386" lon="17.5866761">
        <ele>18.8831</ele>
        <time>2017-12-29T11:55:39Z</time>
      </trkpt>
      <trkpt lat="59.8502241" lon="17.5866403">
        <ele>18.4023</ele>
        <time>2017-12-29T11:55:44Z</time>
      </trkpt>
      <trkpt lat="59.8501164" lon="17.5866401">
        <ele>17.9218</ele>
        <time>2017-12-29T11:55:49Z</time>
      </trkpt>
      <trkpt lat="59.8499755" lon="17.5867128">
        <ele>17.9218</ele>
        <time>2017-12-29T11:55:55Z</time>
      </trkpt>
      <trkpt lat="59.8498885" lon="17.586774">
        <ele>18.4023</ele>
        <time>2017-12-29T11:55:59Z</time>
      </trkpt>
      <trkpt lat="59.8498173" lon="17.5868579">
        <ele>17.9218</ele>
        <time>2017-12-29T11:56:03Z</time>
      </trkpt>
      <trkpt lat="59.8497108" lon="17.587036">
        <ele>19.3638</ele>
        <time>2017-12-29T11:56:10Z</time>
      </trkpt>
      <trkpt lat="59.849694" lon="17.5870603">
        <ele>19.3638</ele>
        <time>2017-12-29T11:56:11Z</time>
      </trkpt>
      <trkpt lat="59.8496266" lon="17.5872229">
        <ele>19.8444</ele>
        <time>2017-12-29T11:56:16Z</time>
      </trkpt>
      <trkpt lat="59.8495306" lon="17.5873925">
        <ele>20.325</ele>
        <time>2017-12-29T11:56:22Z</time>
      </trkpt>
      <trkpt lat="59.8495077" lon="17.5874539">
        <ele>20.325</ele>
        <time>2017-12-29T11:56:24Z</time>
      </trkpt>
      <trkpt lat="59.8494274" lon="17.5876813">
        <ele>21.2864</ele>
        <time>2017-12-29T11:56:31Z</time>
      </trkpt>
      <trkpt lat="59.8493517" lon="17.5878347">
        <ele>21.767</ele>
        <time>2017-12-29T11:56:36Z</time>
      </trkpt>
      <trkpt lat="59.8493373" lon="17.587866">
        <ele>21.767</ele>
        <time>2017-12-29T11:56:37Z</time>
      </trkpt>
      <trkpt lat="59.8492451" lon="17.5879751">
        <ele>20.8057</ele>
        <time>2017-12-29T11:56:42Z</time>
      </trkpt>
      <trkpt lat="59.8491347" lon="17.5881446">
        <ele>20.325</ele>
        <time>2017-12-29T11:56:49Z</time>
      </trkpt>
      <trkpt lat="59.8491164" lon="17.5881696">
        <ele>20.8057</ele>
        <time>2017-12-29T11:56:50Z</time>
      </trkpt>
      <trkpt lat="59.8490249" lon="17.5882478">
        <ele>21.2864</ele>
        <time>2017-12-29T11:56:54Z</time>
      </trkpt>
      <trkpt lat="59.8488637" lon="17.5884181">
        <ele>22.7283</ele>
        <time>2017-12-29T11:57:02Z</time>
      </trkpt>
      <trkpt lat="59.848738" lon="17.5885242">
        <ele>23.6896</ele>
        <time>2017-12-29T11:57:08Z</time>
      </trkpt>
      <trkpt lat="59.8485953" lon="17.5886839">
        <ele>26.0929</ele>
        <time>2017-12-29T11:57:15Z</time>
      </trkpt>
      <trkpt lat="59.8485109" lon="17.5888635">
        <ele>27.0543</ele>
        <time>2017-12-29T11:57:20Z</time>
      </trkpt>
      <trkpt lat="59.8484399" lon="17.5891123">
        <ele>27.5349</ele>
        <time>2017-12-29T11:57:26Z</time>
      </trkpt>
      <trkpt lat="59.848374" lon="17.5893195">
        <ele>27.5349</ele>
        <time>2017-12-29T11:57:32Z</time>
      </trkpt>
      <trkpt lat="59.8482699" lon="17.589462">
        <ele>28.0155</ele>
        <time>2017-12-29T11:57:37Z</time>
      </trkpt>
      <trkpt lat="59.8481526" lon="17.5894966">
        <ele>28.0155</ele>
        <time>2017-12-29T11:57:42Z</time>
      </trkpt>
      <trkpt lat="59.8479733" lon="17.5894852">
        <ele>25.6123</ele>
        <time>2017-12-29T11:57:50Z</time>
      </trkpt>
      <trkpt lat="59.8478759" lon="17.5894876">
        <ele>23.6896</ele>
        <time>2017-12-29T11:57:55Z</time>
      </trkpt>
      <trkpt lat="59.8477629" lon="17.5895453">
        <ele>23.6896</ele>
        <time>2017-12-29T11:58:00Z</time>
      </trkpt>
      <trkpt lat="59.8476537" lon="17.5896063">
        <ele>23.6896</ele>
        <time>2017-12-29T11:58:05Z</time>
      </trkpt>
      <trkpt lat="59.8475431" lon="17.5896594">
        <ele>24.651</ele>
        <time>2017-12-29T11:58:10Z</time>
      </trkpt>
      <trkpt lat="59.84741" lon="17.5897298">
        <ele>24.651</ele>
        <time>2017-12-29T11:58:16Z</time>
      </trkpt>
      <trkpt lat="59.8472915" lon="17.5897914">
        <ele>23.6896</ele>
        <time>2017-12-29T11:58:21Z</time>
      </trkpt>
      <trkpt lat="59.8472019" lon="17.5898142">
        <ele>21.767</ele>
        <time>2017-12-29T11:58:25Z</time>
      </trkpt>
      <trkpt lat="59.8470915" lon="17.5898919">
        <ele>20.8057</ele>
        <time>2017-12-29T11:58:30Z</time>
      </trkpt>
      <trkpt lat="59.8469124" lon="17.5900476">
        <ele>21.2864</ele>
        <time>2017-12-29T11:58:38Z</time>
      </trkpt>
      <trkpt lat="59.8467674" lon="17.5902404">
        <ele>21.767</ele>
        <time>2017-12-29T11:58:45Z</time>
      </trkpt>
      <trkpt lat="59.846673" lon="17.5904275">
        <ele>21.767</ele>
        <time>2017-12-29T11:58:50Z</time>
      </trkpt>
      <trkpt lat="59.8465503" lon="17.5905371">
        <ele>22.2476</ele>
        <time>2017-12-29T11:58:55Z</time>
      </trkpt>
      <trkpt lat="59.8464053" lon="17.5906083">
        <ele>20.8057</ele>
        <time>2017-12-29T11:59:01Z</time>
      </trkpt>
      <trkpt lat="59.8462718" lon="17.5906833">
        <ele>20.325</ele>
        <time>2017-12-29T11:59:07Z</time>
      </trkpt>
      <trkpt lat="59.8461596" lon="17.5907974">
        <ele>20.8057</ele>
        <time>2017-12-29T11:59:12Z</time>
      </trkpt>
      <trkpt lat="59.8460713" lon="17.5909587">
        <ele>20.8057</ele>
        <time>2017-12-29T11:59:17Z</time>
      </trkpt>
      <trkpt lat="59.8459027" lon="17.591152">
        <ele>19.3638</ele>
        <time>2017-12-29T11:59:25Z</time>
      </trkpt>
      <trkpt lat="59.8457491" lon="17.5912362">
        <ele>18.4023</ele>
        <time>2017-12-29T11:59:32Z</time>
      </trkpt>
      <trkpt lat="59.8456068" lon="17.5913447">
        <ele>17.4412</ele>
        <time>2017-12-29T11:59:38Z</time>
      </trkpt>
      <trkpt lat="59.8455893" lon="17.5915759">
        <ele>16.4797</ele>
        <time>2017-12-29T11:59:43Z</time>
      </trkpt>
      <trkpt lat="59.8456089" lon="17.5917171">
        <ele>16.4797</ele>
        <time>2017-12-29T11:59:46Z</time>
      </trkpt>
      <trkpt lat="59.8456442" lon="17.5919846">
        <ele>15.5184</ele>
        <time>2017-12-29T11:59:52Z</time>
      </trkpt>
      <trkpt lat="59.8456827" lon="17.5922675">
        <ele>15.5184</ele>
        <time>2017-12-29T11:59:58Z</time>
      </trkpt>
      <trkpt lat="59.8457096" lon="17.5924999">
        <ele>15.0377</ele>
        <time>2017-12-29T12:00:03Z</time>
      </trkpt>
      <trkpt lat="59.845754" lon="17.5928163">
        <ele>14.557</ele>
        <time>2017-12-29T12:00:10Z</time>
      </trkpt>
      <trkpt lat="59.8457819" lon="17.5930402">
        <ele>14.0764</ele>
        <time>2017-12-29T12:00:15Z</time>
      </trkpt>
      <trkpt lat="59.845821" lon="17.5933588">
        <ele>14.557</ele>
        <time>2017-12-29T12:00:22Z</time>
      </trkpt>
      <trkpt lat="59.8458567" lon="17.5936355">
        <ele>15.5184</ele>
        <time>2017-12-29T12:00:28Z</time>
      </trkpt>
      <trkpt lat="59.8458956" lon="17.5939195">
        <ele>16.9604</ele>
        <time>2017-12-29T12:00:34Z</time>
      </trkpt>
      <trkpt lat="59.8459378" lon="17.5941928">
        <ele>16.4797</ele>
        <time>2017-12-29T12:00:40Z</time>
      </trkpt>
      <trkpt lat="59.8459759" lon="17.5944835">
        <ele>16.9604</ele>
        <time>2017-12-29T12:00:46Z</time>
      </trkpt>
      <trkpt lat="59.8460209" lon="17.5948138">
        <ele>16.9604</ele>
        <time>2017-12-29T12:00:53Z</time>
      </trkpt>
      <trkpt lat="59.8460603" lon="17.5951196">
        <ele>17.4412</ele>
        <time>2017-12-29T12:00:59Z</time>
      </trkpt>
      <trkpt lat="59.8460985" lon="17.5954045">
        <ele>18.4023</ele>
        <time>2017-12-29T12:01:05Z</time>
      </trkpt>
      <trkpt lat="59.8461489" lon="17.5958334">
        <ele>17.9218</ele>
        <time>2017-12-29T12:01:14Z</time>
      </trkpt>
      <trkpt lat="59.8461945" lon="17.5961608">
        <ele>18.8831</ele>
        <time>2017-12-29T12:01:21Z</time>
      </trkpt>
      <trkpt lat="59.8462412" lon="17.5965274">
        <ele>17.9218</ele>
        <time>2017-12-29T12:01:29Z</time>
      </trkpt>
      <trkpt lat="59.8462797" lon="17.5968051">
        <ele>17.4412</ele>
        <time>2017-12-29T12:01:35Z</time>
      </trkpt>
      <trkpt lat="59.8463229" lon="17.5971316">
        <ele>17.4412</ele>
        <time>2017-12-29T12:01:42Z</time>
      </trkpt>
      <trkpt lat="59.8463688" lon="17.5975091">
        <ele>16.9604</ele>
        <time>2017-12-29T12:01:50Z</time>
      </trkpt>
      <trkpt lat="59.8464067" lon="17.5977862">
        <ele>17.4412</ele>
        <time>2017-12-29T12:01:56Z</time>
      </trkpt>
      <trkpt lat="59.8464457" lon="17.598124">
        <ele>16.9604</ele>
        <time>2017-12-29T12:02:03Z</time>
      </trkpt>
      <trkpt lat="59.846484" lon="17.5984162">
        <ele>17.9218</ele>
        <time>2017-12-29T12:02:09Z</time>
      </trkpt>
      <trkpt lat="59.8465224" lon="17.5987105">
        <ele>18.4023</ele>
        <time>2017-12-29T12:02:15Z</time>
      </trkpt>
      <trkpt lat="59.8465644" lon="17.5990383">
        <ele>17.4412</ele>
        <time>2017-12-29T12:02:22Z</time>
      </trkpt>
      <trkpt lat="59.846612" lon="17.599407">
        <ele>17.4412</ele>
        <time>2017-12-29T12:02:30Z</time>
      </trkpt>
      <trkpt lat="59.8466549" lon="17.5997811">
        <ele>17.9218</ele>
        <time>2017-12-29T12:02:38Z</time>
      </trkpt>
      <trkpt lat="59.846696" lon="17.6001082">
        <ele>17.9218</ele>
        <time>2017-12-29T12:02:45Z</time>
      </trkpt>
      <trkpt lat="59.8467482" lon="17.6004669">
        <ele>17.9218</ele>
        <time>2017-12-29T12:02:53Z</time>
      </trkpt>
      <trkpt lat="59.8467931" lon="17.6007856">
        <ele>18.4023</ele>
        <time>2017-12-29T12:03:00Z</time>
      </trkpt>
      <trkpt lat="59.846844" lon="17.6011445">
        <ele>18.8831</ele>
        <time>2017-12-29T12:03:08Z</time>
      </trkpt>
      <trkpt lat="59.8468965" lon="17.6014567">
        <ele>18.8831</ele>
        <time>2017-12-29T12:03:15Z</time>
      </trkpt>
      <trkpt lat="59.8469454" lon="17.6017651">
        <ele>18.8831</ele>
        <time>2017-12-29T12:03:22Z</time>
      </trkpt>
      <trkpt lat="59.8470163" lon="17.6021092">
        <ele>18.8831</ele>
        <time>2017-12-29T12:03:30Z</time>
      </trkpt>
      <trkpt lat="59.8470731" lon="17.6024085">
        <ele>18.4023</ele>
        <time>2017-12-29T12:03:37Z</time>
      </trkpt>
      <trkpt lat="59.8471475" lon="17.6027337">
        <ele>17.4412</ele>
        <time>2017-12-29T12:03:45Z</time>
      </trkpt>
      <trkpt lat="59.8472258" lon="17.6030686">
        <ele>16.4797</ele>
        <time>2017-12-29T12:03:53Z</time>
      </trkpt>
      <trkpt lat="59.8473008" lon="17.6033638">
        <ele>15.999</ele>
        <time>2017-12-29T12:04:00Z</time>
      </trkpt>
      <trkpt lat="59.8474107" lon="17.6037207">
        <ele>16.4797</ele>
        <time>2017-12-29T12:04:08Z</time>
      </trkpt>
      <trkpt lat="59.8474851" lon="17.6039442">
        <ele>16.4797</ele>
        <time>2017-12-29T12:04:13Z</time>
      </trkpt>
      <trkpt lat="59.8475889" lon="17.6042405">
        <ele>16.9604</ele>
        <time>2017-12-29T12:04:20Z</time>
      </trkpt>
      <trkpt lat="59.8476986" lon="17.6045334">
        <ele>18.4023</ele>
        <time>2017-12-29T12:04:27Z</time>
      </trkpt>
      <trkpt lat="59.8477961" lon="17.604773">
        <ele>19.3638</ele>
        <time>2017-12-29T12:04:33Z</time>
      </trkpt>
      <trkpt lat="59.8478793" lon="17.6049547">
        <ele>19.3638</ele>
        <time>2017-12-29T12:04:38Z</time>
      </trkpt>
      <trkpt lat="59.8479562" lon="17.6051382">
        <ele>19.8444</ele>
        <time>2017-12-29T12:04:43Z</time>
      </trkpt>
      <trkpt lat="59.8480168" lon="17.6052953">
        <ele>19.8444</ele>
        <time>2017-12-29T12:04:47Z</time>
      </trkpt>
      <trkpt lat="59.8480925" lon="17.6054549">
        <ele>20.8057</ele>
        <time>2017-12-29T12:04:52Z</time>
      </trkpt>
      <trkpt lat="59.8481941" lon="17.6056565">
        <ele>21.2864</ele>
        <time>2017-12-29T12:04:58Z</time>
      </trkpt>
      <trkpt lat="59.8482823" lon="17.6058111">
        <ele>22.2476</ele>
        <time>2017-12-29T12:05:03Z</time>
      </trkpt>
      <trkpt lat="59.8483794" lon="17.6059232">
        <ele>22.7283</ele>
        <time>2017-12-29T12:05:08Z</time>
      </trkpt>
      <trkpt lat="59.8484875" lon="17.6061051">
        <ele>23.209</ele>
        <time>2017-12-29T12:05:14Z</time>
      </trkpt>
      <trkpt lat="59.8486145" lon="17.6063127">
        <ele>22.7283</ele>
        <time>2017-12-29T12:05:21Z</time>
      </trkpt>
      <trkpt lat="59.8487249" lon="17.6064516">
        <ele>22.2476</ele>
        <time>2017-12-29T12:05:26Z</time>
      </trkpt>
      <trkpt lat="59.8488138" lon="17.6065313">
        <ele>23.209</ele>
        <time>2017-12-29T12:05:30Z</time>
      </trkpt>
      <trkpt lat="59.8489083" lon="17.6065325">
        <ele>23.6896</ele>
        <time>2017-12-29T12:05:34Z</time>
      </trkpt>
      <trkpt lat="59.8489509" lon="17.6065433">
        <ele>23.6896</ele>
        <time>2017-12-29T12:05:36Z</time>
      </trkpt>
      <trkpt lat="59.8490447" lon="17.6064744">
        <ele>22.7283</ele>
        <time>2017-12-29T12:05:41Z</time>
      </trkpt>
      <trkpt lat="59.8491342" lon="17.6063397">
        <ele>22.7283</ele>
        <time>2017-12-29T12:05:48Z</time>
      </trkpt>
      <trkpt lat="59.8491827" lon="17.6062189">
        <ele>21.2864</ele>
        <time>2017-12-29T12:05:52Z</time>
      </trkpt>
      <trkpt lat="59.8492617" lon="17.6060864">
        <ele>20.8057</ele>
        <time>2017-12-29T12:05:57Z</time>
      </trkpt>
      <trkpt lat="59.8493539" lon="17.6059766">
        <ele>20.325</ele>
        <time>2017-12-29T12:06:02Z</time>
      </trkpt>
      <trkpt lat="59.8494636" lon="17.6059127">
        <ele>18.8831</ele>
        <time>2017-12-29T12:06:07Z</time>
      </trkpt>
      <trkpt lat="59.8496004" lon="17.605891">
        <ele>20.325</ele>
        <time>2017-12-29T12:06:13Z</time>
      </trkpt>
      <trkpt lat="59.8497224" lon="17.6058894">
        <ele>20.325</ele>
        <time>2017-12-29T12:06:19Z</time>
      </trkpt>
      <trkpt lat="59.8498308" lon="17.6058495">
        <ele>20.325</ele>
        <time>2017-12-29T12:06:24Z</time>
      </trkpt>
      <trkpt lat="59.8499454" lon="17.6057137">
        <ele>18.4023</ele>
        <time>2017-12-29T12:06:30Z</time>
      </trkpt>
      <trkpt lat="59.8500382" lon="17.6054762">
        <ele>16.4797</ele>
        <time>2017-12-29T12:06:36Z</time>
      </trkpt>
      <trkpt lat="59.8501028" lon="17.6052969">
        <ele>16.4797</ele>
        <time>2017-12-29T12:06:41Z</time>
      </trkpt>
      <trkpt lat="59.8500904" lon="17.6051027">
        <ele>17.4412</ele>
        <time>2017-12-29T12:06:46Z</time>
      </trkpt>
      <trkpt lat="59.8500428" lon="17.6050171">
        <ele>17.9218</ele>
        <time>2017-12-29T12:06:49Z</time>
      </trkpt>
      <trkpt lat="59.8499599" lon="17.6048927">
        <ele>18.8831</ele>
        <time>2017-12-29T12:06:54Z</time>
      </trkpt>
      <trkpt lat="59.849834" lon="17.6047269">
        <ele>19.8444</ele>
        <time>2017-12-29T12:07:01Z</time>
      </trkpt>
      <trkpt lat="59.8496962" lon="17.6045697">
        <ele>19.8444</ele>
        <time>2017-12-29T12:07:08Z</time>
      </trkpt>
      <trkpt lat="59.8495655" lon="17.6043811">
        <ele>20.8057</ele>
        <time>2017-12-29T12:07:15Z</time>
      </trkpt>
      <trkpt lat="59.8495807" lon="17.6042204">
        <ele>21.767</ele>
        <time>2017-12-29T12:07:19Z</time>
      </trkpt>
    </trkseg>
  </trk>
</gpx>